<?xml version="1.0" encoding="UTF-8"?>
<gpx xmlns="http://www.topografix.com/GPX/1/1" version="1.1" creator="Dakota 20">
	<metadata>
		<link href="http://www.garmin.com">
			<text>Garmin International</text>
		</link>
		<time>2017-09-27T14:39:23Z</time>
	</metadata>
	<trk>
		<name>Current Track: 27 SEP 2017 10:02</name>
		<extensions>
		</extensions>
		<trkseg>
			<trkpt lat="51.7607355583" lon="-2.2327957582">
				<ele>136.64</ele>
				<time>2017-09-27T09:02:43Z</time>
			</trkpt>
			<trkpt lat="51.7607273441" lon="-2.2328074090">
				<ele>136.16</ele>
				<time>2017-09-27T09:02:57Z</time>
			</trkpt>
			<trkpt lat="51.7607299425" lon="-2.2328061517">
				<ele>135.68</ele>
				<time>2017-09-27T09:03:18Z</time>
			</trkpt>
			<trkpt lat="51.7607328761" lon="-2.2328093369">
				<ele>136.16</ele>
				<time>2017-09-27T09:03:45Z</time>
			</trkpt>
			<trkpt lat="51.7607334629" lon="-2.2328083310">
				<ele>136.64</ele>
				<time>2017-09-27T09:04:09Z</time>
			</trkpt>
			<trkpt lat="51.7607354745" lon="-2.2328041401">
				<ele>136.64</ele>
				<time>2017-09-27T09:04:35Z</time>
			</trkpt>
			<trkpt lat="51.7607819941" lon="-2.2327851970">
				<ele>136.64</ele>
				<time>2017-09-27T09:04:59Z</time>
			</trkpt>
			<trkpt lat="51.7607467063" lon="-2.2327881306">
				<ele>136.16</ele>
				<time>2017-09-27T09:05:16Z</time>
			</trkpt>
			<trkpt lat="51.7607187107" lon="-2.2327943332">
				<ele>136.64</ele>
				<time>2017-09-27T09:05:35Z</time>
			</trkpt>
			<trkpt lat="51.7607257515" lon="-2.2327926569">
				<ele>136.64</ele>
				<time>2017-09-27T09:06:00Z</time>
			</trkpt>
			<trkpt lat="51.7607402522" lon="-2.2328041401">
				<ele>136.64</ele>
				<time>2017-09-27T09:06:25Z</time>
			</trkpt>
			<trkpt lat="51.7607175373" lon="-2.2327549383">
				<ele>136.64</ele>
				<time>2017-09-27T09:06:46Z</time>
			</trkpt>
			<trkpt lat="51.7607541662" lon="-2.2325295489">
				<ele>137.61</ele>
				<time>2017-09-27T09:07:03Z</time>
			</trkpt>
			<trkpt lat="51.7608265020" lon="-2.2323287185">
				<ele>138.09</ele>
				<time>2017-09-27T09:07:20Z</time>
			</trkpt>
			<trkpt lat="51.7608372308" lon="-2.2323216777">
				<ele>137.13</ele>
				<time>2017-09-27T09:07:41Z</time>
			</trkpt>
			<trkpt lat="51.7607479636" lon="-2.2322937660">
				<ele>137.13</ele>
				<time>2017-09-27T09:07:58Z</time>
			</trkpt>
			<trkpt lat="51.7606291920" lon="-2.2323550377">
				<ele>137.61</ele>
				<time>2017-09-27T09:08:18Z</time>
			</trkpt>
			<trkpt lat="51.7606144398" lon="-2.2322599031">
				<ele>137.13</ele>
				<time>2017-09-27T09:08:33Z</time>
			</trkpt>
			<trkpt lat="51.7604449578" lon="-2.2321869805">
				<ele>135.20</ele>
				<time>2017-09-27T09:08:51Z</time>
			</trkpt>
			<trkpt lat="51.7602880485" lon="-2.2321104538">
				<ele>134.72</ele>
				<time>2017-09-27T09:09:04Z</time>
			</trkpt>
			<trkpt lat="51.7602187302" lon="-2.2318377066">
				<ele>133.76</ele>
				<time>2017-09-27T09:09:22Z</time>
			</trkpt>
			<trkpt lat="51.7602695245" lon="-2.2314279992">
				<ele>130.88</ele>
				<time>2017-09-27T09:09:42Z</time>
			</trkpt>
			<trkpt lat="51.7603354901" lon="-2.2310565971">
				<ele>129.43</ele>
				<time>2017-09-27T09:10:02Z</time>
			</trkpt>
			<trkpt lat="51.7603487335" lon="-2.2307490651">
				<ele>127.99</ele>
				<time>2017-09-27T09:10:24Z</time>
			</trkpt>
			<trkpt lat="51.7603426985" lon="-2.2305153776">
				<ele>124.63</ele>
				<time>2017-09-27T09:10:40Z</time>
			</trkpt>
			<trkpt lat="51.7603895534" lon="-2.2302877251">
				<ele>124.63</ele>
				<time>2017-09-27T09:10:54Z</time>
			</trkpt>
			<trkpt lat="51.7604355700" lon="-2.2300353460">
				<ele>123.19</ele>
				<time>2017-09-27T09:11:08Z</time>
			</trkpt>
			<trkpt lat="51.7604750488" lon="-2.2298033349">
				<ele>122.22</ele>
				<time>2017-09-27T09:11:23Z</time>
			</trkpt>
			<trkpt lat="51.7605248373" lon="-2.2295336053">
				<ele>118.38</ele>
				<time>2017-09-27T09:11:45Z</time>
			</trkpt>
			<trkpt lat="51.7605272681" lon="-2.2295234632">
				<ele>121.74</ele>
				<time>2017-09-27T09:11:46Z</time>
			</trkpt>
			<trkpt lat="51.7605368234" lon="-2.2292211279">
				<ele>119.82</ele>
				<time>2017-09-27T09:12:08Z</time>
			</trkpt>
			<trkpt lat="51.7605352309" lon="-2.2288341355">
				<ele>117.90</ele>
				<time>2017-09-27T09:12:30Z</time>
			</trkpt>
			<trkpt lat="51.7605703510" lon="-2.2287658229">
				<ele>117.90</ele>
				<time>2017-09-27T09:12:48Z</time>
			</trkpt>
			<trkpt lat="51.7605540063" lon="-2.2287764680">
				<ele>117.90</ele>
				<time>2017-09-27T09:13:10Z</time>
			</trkpt>
			<trkpt lat="51.7605843488" lon="-2.2285349853">
				<ele>115.50</ele>
				<time>2017-09-27T09:13:27Z</time>
			</trkpt>
			<trkpt lat="51.7605973408" lon="-2.2284852806">
				<ele>115.50</ele>
				<time>2017-09-27T09:13:30Z</time>
			</trkpt>
			<trkpt lat="51.7606598698" lon="-2.2282369249">
				<ele>114.53</ele>
				<time>2017-09-27T09:13:49Z</time>
			</trkpt>
			<trkpt lat="51.7607587762" lon="-2.2279102821">
				<ele>113.57</ele>
				<time>2017-09-27T09:14:11Z</time>
			</trkpt>
			<trkpt lat="51.7608045414" lon="-2.2277898341">
				<ele>112.13</ele>
				<time>2017-09-27T09:14:20Z</time>
			</trkpt>
			<trkpt lat="51.7609012686" lon="-2.2276066896">
				<ele>112.13</ele>
				<time>2017-09-27T09:14:37Z</time>
			</trkpt>
			<trkpt lat="51.7609428428" lon="-2.2275238764">
				<ele>111.65</ele>
				<time>2017-09-27T09:14:43Z</time>
			</trkpt>
			<trkpt lat="51.7609597743" lon="-2.2274877504">
				<ele>111.17</ele>
				<time>2017-09-27T09:14:46Z</time>
			</trkpt>
			<trkpt lat="51.7610464431" lon="-2.2272578347">
				<ele>110.69</ele>
				<time>2017-09-27T09:15:01Z</time>
			</trkpt>
			<trkpt lat="51.7610944714" lon="-2.2269860096">
				<ele>109.25</ele>
				<time>2017-09-27T09:15:17Z</time>
			</trkpt>
			<trkpt lat="51.7611274961" lon="-2.2267803177">
				<ele>108.77</ele>
				<time>2017-09-27T09:15:31Z</time>
			</trkpt>
			<trkpt lat="51.7611416616" lon="-2.2267494723">
				<ele>107.81</ele>
				<time>2017-09-27T09:15:34Z</time>
			</trkpt>
			<trkpt lat="51.7611514684" lon="-2.2267207224">
				<ele>107.81</ele>
				<time>2017-09-27T09:15:36Z</time>
			</trkpt>
			<trkpt lat="51.7612093035" lon="-2.2264820896">
				<ele>106.84</ele>
				<time>2017-09-27T09:15:50Z</time>
			</trkpt>
			<trkpt lat="51.7612396460" lon="-2.2262644954">
				<ele>105.88</ele>
				<time>2017-09-27T09:16:04Z</time>
			</trkpt>
			<trkpt lat="51.7612588406" lon="-2.2260432132">
				<ele>105.40</ele>
				<time>2017-09-27T09:16:18Z</time>
			</trkpt>
			<trkpt lat="51.7612423282" lon="-2.2258063406">
				<ele>104.44</ele>
				<time>2017-09-27T09:16:33Z</time>
			</trkpt>
			<trkpt lat="51.7611697409" lon="-2.2255870700">
				<ele>103.48</ele>
				<time>2017-09-27T09:16:51Z</time>
			</trkpt>
			<trkpt lat="51.7611535639" lon="-2.2255986370">
				<ele>103.96</ele>
				<time>2017-09-27T09:17:05Z</time>
			</trkpt>
			<trkpt lat="51.7611469422" lon="-2.2255071066">
				<ele>103.48</ele>
				<time>2017-09-27T09:17:22Z</time>
			</trkpt>
			<trkpt lat="51.7611363810" lon="-2.2254673764">
				<ele>102.52</ele>
				<time>2017-09-27T09:17:24Z</time>
			</trkpt>
			<trkpt lat="51.7610671464" lon="-2.2252013348">
				<ele>101.56</ele>
				<time>2017-09-27T09:17:37Z</time>
			</trkpt>
			<trkpt lat="51.7610735167" lon="-2.2249093931">
				<ele>100.60</ele>
				<time>2017-09-27T09:17:52Z</time>
			</trkpt>
			<trkpt lat="51.7610490415" lon="-2.2248084750">
				<ele>99.63</ele>
				<time>2017-09-27T09:17:58Z</time>
			</trkpt>
			<trkpt lat="51.7609606963" lon="-2.2246708442">
				<ele>98.67</ele>
				<time>2017-09-27T09:18:14Z</time>
			</trkpt>
			<trkpt lat="51.7609072197" lon="-2.2246172838">
				<ele>97.23</ele>
				<time>2017-09-27T09:18:30Z</time>
			</trkpt>
			<trkpt lat="51.7608559225" lon="-2.2246067226">
				<ele>96.75</ele>
				<time>2017-09-27T09:18:40Z</time>
			</trkpt>
			<trkpt lat="51.7607985903" lon="-2.2245482169">
				<ele>95.79</ele>
				<time>2017-09-27T09:18:57Z</time>
			</trkpt>
			<trkpt lat="51.7608828284" lon="-2.2246105783">
				<ele>97.71</ele>
				<time>2017-09-27T09:19:16Z</time>
			</trkpt>
			<trkpt lat="51.7609620374" lon="-2.2247066349">
				<ele>99.15</ele>
				<time>2017-09-27T09:19:29Z</time>
			</trkpt>
			<trkpt lat="51.7609744426" lon="-2.2246970795">
				<ele>98.67</ele>
				<time>2017-09-27T09:19:45Z</time>
			</trkpt>
			<trkpt lat="51.7609762028" lon="-2.2246992588">
				<ele>99.15</ele>
				<time>2017-09-27T09:19:57Z</time>
			</trkpt>
			<trkpt lat="51.7609798908" lon="-2.2246977501">
				<ele>93.39</ele>
				<time>2017-09-27T09:20:04Z</time>
			</trkpt>
			<trkpt lat="51.7609803937" lon="-2.2246974986">
				<ele>111.65</ele>
				<time>2017-09-27T09:20:05Z</time>
			</trkpt>
			<trkpt lat="51.7609910388" lon="-2.2247029468">
				<ele>96.27</ele>
				<time>2017-09-27T09:20:40Z</time>
			</trkpt>
			<trkpt lat="51.7609916255" lon="-2.2247047070">
				<ele>99.15</ele>
				<time>2017-09-27T09:20:43Z</time>
			</trkpt>
			<trkpt lat="51.7609918769" lon="-2.2247049585">
				<ele>96.27</ele>
				<time>2017-09-27T09:20:45Z</time>
			</trkpt>
			<trkpt lat="51.7609922122" lon="-2.2247050423">
				<ele>102.52</ele>
				<time>2017-09-27T09:20:47Z</time>
			</trkpt>
			<trkpt lat="51.7610135023" lon="-2.2247468680">
				<ele>99.63</ele>
				<time>2017-09-27T09:20:51Z</time>
			</trkpt>
			<trkpt lat="51.7610501312" lon="-2.2248186171">
				<ele>100.60</ele>
				<time>2017-09-27T09:20:55Z</time>
			</trkpt>
			<trkpt lat="51.7610923760" lon="-2.2252035141">
				<ele>103.00</ele>
				<time>2017-09-27T09:21:11Z</time>
			</trkpt>
			<trkpt lat="51.7611118220" lon="-2.2254284006">
				<ele>103.00</ele>
				<time>2017-09-27T09:21:24Z</time>
			</trkpt>
			<trkpt lat="51.7612143327" lon="-2.2256124672">
				<ele>103.96</ele>
				<time>2017-09-27T09:21:38Z</time>
			</trkpt>
			<trkpt lat="51.7612429149" lon="-2.2256630100">
				<ele>104.44</ele>
				<time>2017-09-27T09:21:53Z</time>
			</trkpt>
			<trkpt lat="51.7612321861" lon="-2.2257438116">
				<ele>103.48</ele>
				<time>2017-09-27T09:22:11Z</time>
			</trkpt>
			<trkpt lat="51.7612600978" lon="-2.2258891538">
				<ele>105.40</ele>
				<time>2017-09-27T09:22:26Z</time>
			</trkpt>
			<trkpt lat="51.7612597626" lon="-2.2258679476">
				<ele>105.88</ele>
				<time>2017-09-27T09:22:45Z</time>
			</trkpt>
			<trkpt lat="51.7612628639" lon="-2.2258610744">
				<ele>102.52</ele>
				<time>2017-09-27T09:22:51Z</time>
			</trkpt>
			<trkpt lat="51.7612639535" lon="-2.2258718032">
				<ele>106.84</ele>
				<time>2017-09-27T09:22:52Z</time>
			</trkpt>
			<trkpt lat="51.7612642050" lon="-2.2258741502">
				<ele>105.40</ele>
				<time>2017-09-27T09:23:12Z</time>
			</trkpt>
			<trkpt lat="51.7612652946" lon="-2.2259338293">
				<ele>105.40</ele>
				<time>2017-09-27T09:23:17Z</time>
			</trkpt>
			<trkpt lat="51.7612507101" lon="-2.2262147069">
				<ele>106.36</ele>
				<time>2017-09-27T09:23:33Z</time>
			</trkpt>
			<trkpt lat="51.7612170987" lon="-2.2264862806">
				<ele>107.81</ele>
				<time>2017-09-27T09:23:48Z</time>
			</trkpt>
			<trkpt lat="51.7611446790" lon="-2.2267705947">
				<ele>108.77</ele>
				<time>2017-09-27T09:24:08Z</time>
			</trkpt>
			<trkpt lat="51.7611180246" lon="-2.2269322816">
				<ele>109.25</ele>
				<time>2017-09-27T09:24:21Z</time>
			</trkpt>
			<trkpt lat="51.7610762827" lon="-2.2272002511">
				<ele>110.69</ele>
				<time>2017-09-27T09:24:38Z</time>
			</trkpt>
			<trkpt lat="51.7610519752" lon="-2.2274238802">
				<ele>111.65</ele>
				<time>2017-09-27T09:24:53Z</time>
			</trkpt>
			<trkpt lat="51.7611026857" lon="-2.2273755167">
				<ele>112.13</ele>
				<time>2017-09-27T09:25:16Z</time>
			</trkpt>
			<trkpt lat="51.7612196133" lon="-2.2272655461">
				<ele>112.61</ele>
				<time>2017-09-27T09:25:33Z</time>
			</trkpt>
			<trkpt lat="51.7613596749" lon="-2.2272116505">
				<ele>113.09</ele>
				<time>2017-09-27T09:25:53Z</time>
			</trkpt>
			<trkpt lat="51.7614050210" lon="-2.2271937132">
				<ele>114.05</ele>
				<time>2017-09-27T09:26:05Z</time>
			</trkpt>
			<trkpt lat="51.7617000639" lon="-2.2271323577">
				<ele>112.61</ele>
				<time>2017-09-27T09:26:24Z</time>
			</trkpt>
			<trkpt lat="51.7619061749" lon="-2.2270261589">
				<ele>113.09</ele>
				<time>2017-09-27T09:26:43Z</time>
			</trkpt>
			<trkpt lat="51.7620957736" lon="-2.2270193696">
				<ele>111.65</ele>
				<time>2017-09-27T09:27:02Z</time>
			</trkpt>
			<trkpt lat="51.7621559557" lon="-2.2270339541">
				<ele>112.13</ele>
				<time>2017-09-27T09:27:20Z</time>
			</trkpt>
			<trkpt lat="51.7621674389" lon="-2.2270177770">
				<ele>111.17</ele>
				<time>2017-09-27T09:27:41Z</time>
			</trkpt>
			<trkpt lat="51.7621899024" lon="-2.2269989178">
				<ele>110.69</ele>
				<time>2017-09-27T09:28:08Z</time>
			</trkpt>
			<trkpt lat="51.7621965241" lon="-2.2270041984">
				<ele>110.21</ele>
				<time>2017-09-27T09:28:29Z</time>
			</trkpt>
			<trkpt lat="51.7622082587" lon="-2.2269588523">
				<ele>109.25</ele>
				<time>2017-09-27T09:28:47Z</time>
			</trkpt>
			<trkpt lat="51.7622538563" lon="-2.2267631348">
				<ele>107.32</ele>
				<time>2017-09-27T09:29:03Z</time>
			</trkpt>
			<trkpt lat="51.7622942571" lon="-2.2266473807">
				<ele>105.40</ele>
				<time>2017-09-27T09:29:17Z</time>
			</trkpt>
			<trkpt lat="51.7623230070" lon="-2.2265374940">
				<ele>103.96</ele>
				<time>2017-09-27T09:29:30Z</time>
			</trkpt>
			<trkpt lat="51.7623772379" lon="-2.2264057305">
				<ele>102.52</ele>
				<time>2017-09-27T09:29:44Z</time>
			</trkpt>
			<trkpt lat="51.7623971030" lon="-2.2263198160">
				<ele>103.00</ele>
				<time>2017-09-27T09:29:55Z</time>
			</trkpt>
			<trkpt lat="51.7624397669" lon="-2.2262256872">
				<ele>101.08</ele>
				<time>2017-09-27T09:30:04Z</time>
			</trkpt>
			<trkpt lat="51.7624535132" lon="-2.2261956800">
				<ele>100.60</ele>
				<time>2017-09-27T09:30:07Z</time>
			</trkpt>
			<trkpt lat="51.7624979373" lon="-2.2260499187">
				<ele>98.67</ele>
				<time>2017-09-27T09:30:20Z</time>
			</trkpt>
			<trkpt lat="51.7625474744" lon="-2.2259241063">
				<ele>96.75</ele>
				<time>2017-09-27T09:30:35Z</time>
			</trkpt>
			<trkpt lat="51.7626385018" lon="-2.2257834580">
				<ele>94.35</ele>
				<time>2017-09-27T09:30:51Z</time>
			</trkpt>
			<trkpt lat="51.7626636475" lon="-2.2257485054">
				<ele>93.39</ele>
				<time>2017-09-27T09:30:56Z</time>
			</trkpt>
			<trkpt lat="51.7627214827" lon="-2.2256446537">
				<ele>91.46</ele>
				<time>2017-09-27T09:31:08Z</time>
			</trkpt>
			<trkpt lat="51.7627866101" lon="-2.2255318332">
				<ele>89.54</ele>
				<time>2017-09-27T09:31:22Z</time>
			</trkpt>
			<trkpt lat="51.7628663220" lon="-2.2253957111">
				<ele>86.18</ele>
				<time>2017-09-27T09:31:39Z</time>
			</trkpt>
			<trkpt lat="51.7629279289" lon="-2.2253142390">
				<ele>85.21</ele>
				<time>2017-09-27T09:31:52Z</time>
			</trkpt>
			<trkpt lat="51.7630057130" lon="-2.2252277378">
				<ele>83.29</ele>
				<time>2017-09-27T09:32:03Z</time>
			</trkpt>
			<trkpt lat="51.7630438507" lon="-2.2251719981">
				<ele>81.85</ele>
				<time>2017-09-27T09:32:09Z</time>
			</trkpt>
			<trkpt lat="51.7630736902" lon="-2.2250993270">
				<ele>81.37</ele>
				<time>2017-09-27T09:32:15Z</time>
			</trkpt>
			<trkpt lat="51.7631737702" lon="-2.2249509674">
				<ele>79.45</ele>
				<time>2017-09-27T09:32:28Z</time>
			</trkpt>
			<trkpt lat="51.7631715909" lon="-2.2248945571">
				<ele>79.45</ele>
				<time>2017-09-27T09:32:43Z</time>
			</trkpt>
			<trkpt lat="51.7631834932" lon="-2.2249547392">
				<ele>79.45</ele>
				<time>2017-09-27T09:33:04Z</time>
			</trkpt>
			<trkpt lat="51.7631824873" lon="-2.2249592654">
				<ele>79.93</ele>
				<time>2017-09-27T09:33:30Z</time>
			</trkpt>
			<trkpt lat="51.7631909531" lon="-2.2249552421">
				<ele>79.93</ele>
				<time>2017-09-27T09:33:55Z</time>
			</trkpt>
			<trkpt lat="51.7632585950" lon="-2.2248762008">
				<ele>79.93</ele>
				<time>2017-09-27T09:34:06Z</time>
			</trkpt>
			<trkpt lat="51.7633371335" lon="-2.2247496340">
				<ele>80.89</ele>
				<time>2017-09-27T09:34:20Z</time>
			</trkpt>
			<trkpt lat="51.7634313460" lon="-2.2246694192">
				<ele>81.37</ele>
				<time>2017-09-27T09:34:33Z</time>
			</trkpt>
			<trkpt lat="51.7634565756" lon="-2.2246481292">
				<ele>80.89</ele>
				<time>2017-09-27T09:34:36Z</time>
			</trkpt>
			<trkpt lat="51.7634832300" lon="-2.2246312816">
				<ele>81.37</ele>
				<time>2017-09-27T09:34:39Z</time>
			</trkpt>
			<trkpt lat="51.7635652889" lon="-2.2245779727">
				<ele>83.29</ele>
				<time>2017-09-27T09:34:52Z</time>
			</trkpt>
			<trkpt lat="51.7636393011" lon="-2.2245079000">
				<ele>84.73</ele>
				<time>2017-09-27T09:35:04Z</time>
			</trkpt>
			<trkpt lat="51.7636494432" lon="-2.2244885378">
				<ele>85.69</ele>
				<time>2017-09-27T09:35:14Z</time>
			</trkpt>
			<trkpt lat="51.7636591662" lon="-2.2244717740">
				<ele>84.73</ele>
				<time>2017-09-27T09:35:16Z</time>
			</trkpt>
			<trkpt lat="51.7637568992" lon="-2.2243607976">
				<ele>85.69</ele>
				<time>2017-09-27T09:35:33Z</time>
			</trkpt>
			<trkpt lat="51.7638611700" lon="-2.2243012022">
				<ele>89.06</ele>
				<time>2017-09-27T09:35:46Z</time>
			</trkpt>
			<trkpt lat="51.7638709769" lon="-2.2242626455">
				<ele>87.62</ele>
				<time>2017-09-27T09:36:03Z</time>
			</trkpt>
			<trkpt lat="51.7639300693" lon="-2.2242212389">
				<ele>90.98</ele>
				<time>2017-09-27T09:36:25Z</time>
			</trkpt>
			<trkpt lat="51.7640416324" lon="-2.2241271101">
				<ele>90.50</ele>
				<time>2017-09-27T09:36:41Z</time>
			</trkpt>
			<trkpt lat="51.7641249485" lon="-2.2240695264">
				<ele>92.42</ele>
				<time>2017-09-27T09:36:51Z</time>
			</trkpt>
			<trkpt lat="51.7642184906" lon="-2.2240293771">
				<ele>92.90</ele>
				<time>2017-09-27T09:37:10Z</time>
			</trkpt>
			<trkpt lat="51.7642939277" lon="-2.2240087576">
				<ele>95.31</ele>
				<time>2017-09-27T09:37:20Z</time>
			</trkpt>
			<trkpt lat="51.7643570434" lon="-2.2239137068">
				<ele>94.83</ele>
				<time>2017-09-27T09:37:31Z</time>
			</trkpt>
			<trkpt lat="51.7644632421" lon="-2.2237867210">
				<ele>98.19</ele>
				<time>2017-09-27T09:37:48Z</time>
			</trkpt>
			<trkpt lat="51.7645054031" lon="-2.2237574682">
				<ele>97.23</ele>
				<time>2017-09-27T09:38:07Z</time>
			</trkpt>
			<trkpt lat="51.7645676807" lon="-2.2236869764">
				<ele>98.67</ele>
				<time>2017-09-27T09:38:28Z</time>
			</trkpt>
			<trkpt lat="51.7646612227" lon="-2.2236228548">
				<ele>102.04</ele>
				<time>2017-09-27T09:38:43Z</time>
			</trkpt>
			<trkpt lat="51.7647738755" lon="-2.2235744912">
				<ele>102.52</ele>
				<time>2017-09-27T09:39:00Z</time>
			</trkpt>
			<trkpt lat="51.7648131028" lon="-2.2234772611">
				<ele>102.52</ele>
				<time>2017-09-27T09:39:17Z</time>
			</trkpt>
			<trkpt lat="51.7649024539" lon="-2.2233312484">
				<ele>104.44</ele>
				<time>2017-09-27T09:39:37Z</time>
			</trkpt>
			<trkpt lat="51.7650235724" lon="-2.2232196014">
				<ele>105.40</ele>
				<time>2017-09-27T09:39:55Z</time>
			</trkpt>
			<trkpt lat="51.7650506459" lon="-2.2232284863">
				<ele>115.50</ele>
				<time>2017-09-27T09:39:59Z</time>
			</trkpt>
			<trkpt lat="51.7650506459" lon="-2.2232281510">
				<ele>106.36</ele>
				<time>2017-09-27T09:40:00Z</time>
			</trkpt>
			<trkpt lat="51.7650681641" lon="-2.2232578229">
				<ele>106.36</ele>
				<time>2017-09-27T09:40:17Z</time>
			</trkpt>
			<trkpt lat="51.7650878616" lon="-2.2232594155">
				<ele>103.00</ele>
				<time>2017-09-27T09:40:35Z</time>
			</trkpt>
			<trkpt lat="51.7650962435" lon="-2.2232610080">
				<ele>107.32</ele>
				<time>2017-09-27T09:40:36Z</time>
			</trkpt>
			<trkpt lat="51.7652315274" lon="-2.2232721560">
				<ele>107.81</ele>
				<time>2017-09-27T09:40:49Z</time>
			</trkpt>
			<trkpt lat="51.7653808091" lon="-2.2232515365">
				<ele>110.21</ele>
				<time>2017-09-27T09:41:09Z</time>
			</trkpt>
			<trkpt lat="51.7655726708" lon="-2.2232203558">
				<ele>110.69</ele>
				<time>2017-09-27T09:41:31Z</time>
			</trkpt>
			<trkpt lat="51.7657729145" lon="-2.2231982276">
				<ele>112.13</ele>
				<time>2017-09-27T09:41:50Z</time>
			</trkpt>
			<trkpt lat="51.7659403849" lon="-2.2232025024">
				<ele>113.09</ele>
				<time>2017-09-27T09:42:07Z</time>
			</trkpt>
			<trkpt lat="51.7659860663" lon="-2.2231994011">
				<ele>113.09</ele>
				<time>2017-09-27T09:42:12Z</time>
			</trkpt>
			<trkpt lat="51.7661095317" lon="-2.2231080383">
				<ele>115.98</ele>
				<time>2017-09-27T09:42:33Z</time>
			</trkpt>
			<trkpt lat="51.7662600707" lon="-2.2230319306">
				<ele>115.50</ele>
				<time>2017-09-27T09:42:52Z</time>
			</trkpt>
			<trkpt lat="51.7664082628" lon="-2.2229582537">
				<ele>115.50</ele>
				<time>2017-09-27T09:43:05Z</time>
			</trkpt>
			<trkpt lat="51.7664562911" lon="-2.2229124047">
				<ele>115.50</ele>
				<time>2017-09-27T09:43:24Z</time>
			</trkpt>
			<trkpt lat="51.7664842028" lon="-2.2228010092">
				<ele>115.98</ele>
				<time>2017-09-27T09:43:44Z</time>
			</trkpt>
			<trkpt lat="51.7666311376" lon="-2.2226629592">
				<ele>115.98</ele>
				<time>2017-09-27T09:44:02Z</time>
			</trkpt>
			<trkpt lat="51.7667850293" lon="-2.2225371469">
				<ele>115.98</ele>
				<time>2017-09-27T09:44:23Z</time>
			</trkpt>
			<trkpt lat="51.7668651603" lon="-2.2223760467">
				<ele>115.98</ele>
				<time>2017-09-27T09:44:41Z</time>
			</trkpt>
			<trkpt lat="51.7669368256" lon="-2.2222406790">
				<ele>115.50</ele>
				<time>2017-09-27T09:44:59Z</time>
			</trkpt>
			<trkpt lat="51.7671102472" lon="-2.2221107595">
				<ele>115.98</ele>
				<time>2017-09-27T09:45:17Z</time>
			</trkpt>
			<trkpt lat="51.7672700901" lon="-2.2219514195">
				<ele>116.46</ele>
				<time>2017-09-27T09:45:38Z</time>
			</trkpt>
			<trkpt lat="51.7673561722" lon="-2.2219156288">
				<ele>116.46</ele>
				<time>2017-09-27T09:45:58Z</time>
			</trkpt>
			<trkpt lat="51.7675138358" lon="-2.2217696160">
				<ele>116.46</ele>
				<time>2017-09-27T09:46:16Z</time>
			</trkpt>
			<trkpt lat="51.7675934639" lon="-2.2216201667">
				<ele>118.38</ele>
				<time>2017-09-27T09:46:35Z</time>
			</trkpt>
			<trkpt lat="51.7676532269" lon="-2.2216227651">
				<ele>118.86</ele>
				<time>2017-09-27T09:46:43Z</time>
			</trkpt>
			<trkpt lat="51.7678308394" lon="-2.2214620840">
				<ele>120.78</ele>
				<time>2017-09-27T09:47:08Z</time>
			</trkpt>
			<trkpt lat="51.7678864952" lon="-2.2213976271">
				<ele>119.82</ele>
				<time>2017-09-27T09:47:30Z</time>
			</trkpt>
			<trkpt lat="51.7678934522" lon="-2.2213832103">
				<ele>120.30</ele>
				<time>2017-09-27T09:47:32Z</time>
			</trkpt>
			<trkpt lat="51.7678733356" lon="-2.2213114612">
				<ele>119.34</ele>
				<time>2017-09-27T09:47:46Z</time>
			</trkpt>
			<trkpt lat="51.7678413168" lon="-2.2213643510">
				<ele>119.34</ele>
				<time>2017-09-27T09:48:06Z</time>
			</trkpt>
			<trkpt lat="51.7678647861" lon="-2.2214742377">
				<ele>120.30</ele>
				<time>2017-09-27T09:48:21Z</time>
			</trkpt>
			<trkpt lat="51.7679092102" lon="-2.2215179075">
				<ele>120.30</ele>
				<time>2017-09-27T09:48:28Z</time>
			</trkpt>
			<trkpt lat="51.7679275665" lon="-2.2217045724">
				<ele>122.71</ele>
				<time>2017-09-27T09:48:47Z</time>
			</trkpt>
			<trkpt lat="51.7679310031" lon="-2.2217233479">
				<ele>122.71</ele>
				<time>2017-09-27T09:48:48Z</time>
			</trkpt>
			<trkpt lat="51.7679869942" lon="-2.2219257709">
				<ele>124.15</ele>
				<time>2017-09-27T09:49:00Z</time>
			</trkpt>
			<trkpt lat="51.7680133972" lon="-2.2219939157">
				<ele>124.63</ele>
				<time>2017-09-27T09:49:06Z</time>
			</trkpt>
			<trkpt lat="51.7680370342" lon="-2.2221584525">
				<ele>126.55</ele>
				<time>2017-09-27T09:49:21Z</time>
			</trkpt>
			<trkpt lat="51.7680529598" lon="-2.2222519945">
				<ele>127.51</ele>
				<time>2017-09-27T09:49:36Z</time>
			</trkpt>
			<trkpt lat="51.7680955399" lon="-2.2224485502">
				<ele>128.47</ele>
				<time>2017-09-27T09:49:52Z</time>
			</trkpt>
			<trkpt lat="51.7680734955" lon="-2.2225347999">
				<ele>129.43</ele>
				<time>2017-09-27T09:50:14Z</time>
			</trkpt>
			<trkpt lat="51.7680207733" lon="-2.2227128316">
				<ele>130.40</ele>
				<time>2017-09-27T09:50:29Z</time>
			</trkpt>
			<trkpt lat="51.7680413090" lon="-2.2228969820">
				<ele>131.84</ele>
				<time>2017-09-27T09:50:45Z</time>
			</trkpt>
			<trkpt lat="51.7680611741" lon="-2.2229528893">
				<ele>133.28</ele>
				<time>2017-09-27T09:50:51Z</time>
			</trkpt>
			<trkpt lat="51.7680688016" lon="-2.2230015043">
				<ele>133.76</ele>
				<time>2017-09-27T09:50:54Z</time>
			</trkpt>
			<trkpt lat="51.7681058496" lon="-2.2231473494">
				<ele>135.20</ele>
				<time>2017-09-27T09:51:05Z</time>
			</trkpt>
			<trkpt lat="51.7681044247" lon="-2.2232170869">
				<ele>134.72</ele>
				<time>2017-09-27T09:51:10Z</time>
			</trkpt>
			<trkpt lat="51.7681107111" lon="-2.2232562304">
				<ele>135.68</ele>
				<time>2017-09-27T09:51:12Z</time>
			</trkpt>
			<trkpt lat="51.7681462504" lon="-2.2234522831">
				<ele>137.13</ele>
				<time>2017-09-27T09:51:26Z</time>
			</trkpt>
			<trkpt lat="51.7681340966" lon="-2.2234707233">
				<ele>137.13</ele>
				<time>2017-09-27T09:51:29Z</time>
			</trkpt>
			<trkpt lat="51.7681483459" lon="-2.2235104535">
				<ele>137.13</ele>
				<time>2017-09-27T09:51:49Z</time>
			</trkpt>
			<trkpt lat="51.7681387905" lon="-2.2235402931">
				<ele>140.01</ele>
				<time>2017-09-27T09:52:01Z</time>
			</trkpt>
			<trkpt lat="51.7681558058" lon="-2.2236119583">
				<ele>139.53</ele>
				<time>2017-09-27T09:52:11Z</time>
			</trkpt>
			<trkpt lat="51.7681818735" lon="-2.2236867249">
				<ele>138.57</ele>
				<time>2017-09-27T09:52:24Z</time>
			</trkpt>
			<trkpt lat="51.7682172451" lon="-2.2238050774">
				<ele>142.41</ele>
				<time>2017-09-27T09:52:35Z</time>
			</trkpt>
			<trkpt lat="51.7682218552" lon="-2.2239913233">
				<ele>140.49</ele>
				<time>2017-09-27T09:52:50Z</time>
			</trkpt>
			<trkpt lat="51.7682232801" lon="-2.2240154631">
				<ele>144.34</ele>
				<time>2017-09-27T09:52:52Z</time>
			</trkpt>
			<trkpt lat="51.7682213522" lon="-2.2241023835">
				<ele>140.97</ele>
				<time>2017-09-27T09:53:05Z</time>
			</trkpt>
			<trkpt lat="51.7682421394" lon="-2.2241669241">
				<ele>144.34</ele>
				<time>2017-09-27T09:53:16Z</time>
			</trkpt>
			<trkpt lat="51.7682731524" lon="-2.2243727837">
				<ele>146.74</ele>
				<time>2017-09-27T09:53:33Z</time>
			</trkpt>
			<trkpt lat="51.7682791036" lon="-2.2243953310">
				<ele>142.89</ele>
				<time>2017-09-27T09:53:36Z</time>
			</trkpt>
			<trkpt lat="51.7682891618" lon="-2.2244184650">
				<ele>148.66</ele>
				<time>2017-09-27T09:53:38Z</time>
			</trkpt>
			<trkpt lat="51.7682941910" lon="-2.2244300321">
				<ele>144.82</ele>
				<time>2017-09-27T09:53:39Z</time>
			</trkpt>
			<trkpt lat="51.7683449015" lon="-2.2245769668">
				<ele>148.18</ele>
				<time>2017-09-27T09:53:51Z</time>
			</trkpt>
			<trkpt lat="51.7683609948" lon="-2.2246431839">
				<ele>149.14</ele>
				<time>2017-09-27T09:53:55Z</time>
			</trkpt>
			<trkpt lat="51.7684254516" lon="-2.2249034420">
				<ele>149.14</ele>
				<time>2017-09-27T09:54:14Z</time>
			</trkpt>
			<trkpt lat="51.7684441432" lon="-2.2249881830">
				<ele>152.51</ele>
				<time>2017-09-27T09:54:21Z</time>
			</trkpt>
			<trkpt lat="51.7684645113" lon="-2.2252434958">
				<ele>152.51</ele>
				<time>2017-09-27T09:54:37Z</time>
			</trkpt>
			<trkpt lat="51.7685083486" lon="-2.2253315058">
				<ele>153.95</ele>
				<time>2017-09-27T09:54:55Z</time>
			</trkpt>
			<trkpt lat="51.7685324047" lon="-2.2254227009">
				<ele>154.43</ele>
				<time>2017-09-27T09:55:09Z</time>
			</trkpt>
			<trkpt lat="51.7686070036" lon="-2.2255393770">
				<ele>157.79</ele>
				<time>2017-09-27T09:55:21Z</time>
			</trkpt>
			<trkpt lat="51.7686770763" lon="-2.2257173248">
				<ele>159.72</ele>
				<time>2017-09-27T09:55:35Z</time>
			</trkpt>
			<trkpt lat="51.7686735559" lon="-2.2259011399">
				<ele>162.60</ele>
				<time>2017-09-27T09:55:48Z</time>
			</trkpt>
			<trkpt lat="51.7687020544" lon="-2.2260505892">
				<ele>164.04</ele>
				<time>2017-09-27T09:56:01Z</time>
			</trkpt>
			<trkpt lat="51.7686794233" lon="-2.2260744777">
				<ele>164.04</ele>
				<time>2017-09-27T09:56:23Z</time>
			</trkpt>
			<trkpt lat="51.7686766572" lon="-2.2261203267">
				<ele>165.00</ele>
				<time>2017-09-27T09:56:48Z</time>
			</trkpt>
			<trkpt lat="51.7686752323" lon="-2.2261323966">
				<ele>163.56</ele>
				<time>2017-09-27T09:56:50Z</time>
			</trkpt>
			<trkpt lat="51.7686810158" lon="-2.2261805087">
				<ele>166.45</ele>
				<time>2017-09-27T09:56:53Z</time>
			</trkpt>
			<trkpt lat="51.7686908226" lon="-2.2262526769">
				<ele>166.93</ele>
				<time>2017-09-27T09:56:58Z</time>
			</trkpt>
			<trkpt lat="51.7686936725" lon="-2.2262826841">
				<ele>166.93</ele>
				<time>2017-09-27T09:57:00Z</time>
			</trkpt>
			<trkpt lat="51.7687134538" lon="-2.2264260985">
				<ele>169.33</ele>
				<time>2017-09-27T09:57:10Z</time>
			</trkpt>
			<trkpt lat="51.7687344085" lon="-2.2265176289">
				<ele>170.29</ele>
				<time>2017-09-27T09:57:23Z</time>
			</trkpt>
			<trkpt lat="51.7687562853" lon="-2.2266283538">
				<ele>171.73</ele>
				<time>2017-09-27T09:57:36Z</time>
			</trkpt>
			<trkpt lat="51.7687515076" lon="-2.2266384121">
				<ele>172.69</ele>
				<time>2017-09-27T09:57:53Z</time>
			</trkpt>
			<trkpt lat="51.7687649187" lon="-2.2266933974">
				<ele>173.17</ele>
				<time>2017-09-27T09:57:57Z</time>
			</trkpt>
			<trkpt lat="51.7687975243" lon="-2.2268270887">
				<ele>173.17</ele>
				<time>2017-09-27T09:58:05Z</time>
			</trkpt>
			<trkpt lat="51.7688489053" lon="-2.2271044459">
				<ele>175.10</ele>
				<time>2017-09-27T09:58:20Z</time>
			</trkpt>
			<trkpt lat="51.7688566167" lon="-2.2271315195">
				<ele>175.58</ele>
				<time>2017-09-27T09:58:22Z</time>
			</trkpt>
			<trkpt lat="51.7688592151" lon="-2.2271448467">
				<ele>174.62</ele>
				<time>2017-09-27T09:58:23Z</time>
			</trkpt>
			<trkpt lat="51.7689255998" lon="-2.2273534723">
				<ele>177.50</ele>
				<time>2017-09-27T09:58:36Z</time>
			</trkpt>
			<trkpt lat="51.7689315509" lon="-2.2273786180">
				<ele>177.02</ele>
				<time>2017-09-27T09:58:38Z</time>
			</trkpt>
			<trkpt lat="51.7689393461" lon="-2.2274144925">
				<ele>177.50</ele>
				<time>2017-09-27T09:58:40Z</time>
			</trkpt>
			<trkpt lat="51.7689542659" lon="-2.2274645325">
				<ele>177.98</ele>
				<time>2017-09-27T09:58:43Z</time>
			</trkpt>
			<trkpt lat="51.7689978518" lon="-2.2276021633">
				<ele>178.94</ele>
				<time>2017-09-27T09:58:52Z</time>
			</trkpt>
			<trkpt lat="51.7690672539" lon="-2.2278122976">
				<ele>180.87</ele>
				<time>2017-09-27T09:59:05Z</time>
			</trkpt>
			<trkpt lat="51.7691374104" lon="-2.2280166484">
				<ele>182.79</ele>
				<time>2017-09-27T09:59:17Z</time>
			</trkpt>
			<trkpt lat="51.7692226544" lon="-2.2282504197">
				<ele>182.79</ele>
				<time>2017-09-27T09:59:32Z</time>
			</trkpt>
			<trkpt lat="51.7693213932" lon="-2.2284212429">
				<ele>185.19</ele>
				<time>2017-09-27T09:59:45Z</time>
			</trkpt>
			<trkpt lat="51.7693396658" lon="-2.2284380905">
				<ele>184.23</ele>
				<time>2017-09-27T09:59:47Z</time>
			</trkpt>
			<trkpt lat="51.7694438528" lon="-2.2286281083">
				<ele>186.15</ele>
				<time>2017-09-27T10:00:02Z</time>
			</trkpt>
			<trkpt lat="51.7695261631" lon="-2.2287525795">
				<ele>189.04</ele>
				<time>2017-09-27T10:00:13Z</time>
			</trkpt>
			<trkpt lat="51.7696344573" lon="-2.2289753705">
				<ele>190.48</ele>
				<time>2017-09-27T10:00:30Z</time>
			</trkpt>
			<trkpt lat="51.7696982436" lon="-2.2291984968">
				<ele>193.36</ele>
				<time>2017-09-27T10:00:43Z</time>
			</trkpt>
			<trkpt lat="51.7697860021" lon="-2.2293756902">
				<ele>195.28</ele>
				<time>2017-09-27T10:00:57Z</time>
			</trkpt>
			<trkpt lat="51.7698227149" lon="-2.2294200305">
				<ele>195.77</ele>
				<time>2017-09-27T10:01:02Z</time>
			</trkpt>
			<trkpt lat="51.7698751017" lon="-2.2295292467">
				<ele>198.17</ele>
				<time>2017-09-27T10:01:12Z</time>
			</trkpt>
			<trkpt lat="51.7699113954" lon="-2.2295953799">
				<ele>198.65</ele>
				<time>2017-09-27T10:01:23Z</time>
			</trkpt>
			<trkpt lat="51.7699647881" lon="-2.2296916880">
				<ele>201.05</ele>
				<time>2017-09-27T10:01:31Z</time>
			</trkpt>
			<trkpt lat="51.7699791212" lon="-2.2297196835">
				<ele>200.09</ele>
				<time>2017-09-27T10:01:33Z</time>
			</trkpt>
			<trkpt lat="51.7700051889" lon="-2.2297501937">
				<ele>200.57</ele>
				<time>2017-09-27T10:01:49Z</time>
			</trkpt>
			<trkpt lat="51.7700045183" lon="-2.2297475114">
				<ele>199.61</ele>
				<time>2017-09-27T10:02:11Z</time>
			</trkpt>
			<trkpt lat="51.7700047698" lon="-2.2297476791">
				<ele>198.65</ele>
				<time>2017-09-27T10:02:22Z</time>
			</trkpt>
			<trkpt lat="51.7699394748" lon="-2.2298224457">
				<ele>201.53</ele>
				<time>2017-09-27T10:02:37Z</time>
			</trkpt>
			<trkpt lat="51.7699478567" lon="-2.2298323363">
				<ele>202.01</ele>
				<time>2017-09-27T10:02:55Z</time>
			</trkpt>
			<trkpt lat="51.7699574120" lon="-2.2298297379">
				<ele>201.53</ele>
				<time>2017-09-27T10:03:31Z</time>
			</trkpt>
			<trkpt lat="51.7699462641" lon="-2.2298186738">
				<ele>201.53</ele>
				<time>2017-09-27T10:04:01Z</time>
			</trkpt>
			<trkpt lat="51.7699202802" lon="-2.2297896724">
				<ele>200.57</ele>
				<time>2017-09-27T10:04:18Z</time>
			</trkpt>
			<trkpt lat="51.7699228786" lon="-2.2298026644">
				<ele>201.53</ele>
				<time>2017-09-27T10:04:40Z</time>
			</trkpt>
			<trkpt lat="51.7699238844" lon="-2.2298060171">
				<ele>201.53</ele>
				<time>2017-09-27T10:05:04Z</time>
			</trkpt>
			<trkpt lat="51.7699386366" lon="-2.2297882475">
				<ele>201.53</ele>
				<time>2017-09-27T10:05:26Z</time>
			</trkpt>
			<trkpt lat="51.7700047698" lon="-2.2298630979">
				<ele>200.57</ele>
				<time>2017-09-27T10:05:38Z</time>
			</trkpt>
			<trkpt lat="51.7700176779" lon="-2.2299044207">
				<ele>202.01</ele>
				<time>2017-09-27T10:05:53Z</time>
			</trkpt>
			<trkpt lat="51.7700376268" lon="-2.2299604956">
				<ele>201.05</ele>
				<time>2017-09-27T10:06:12Z</time>
			</trkpt>
			<trkpt lat="51.7700560670" lon="-2.2300095297">
				<ele>201.05</ele>
				<time>2017-09-27T10:06:17Z</time>
			</trkpt>
			<trkpt lat="51.7700632755" lon="-2.2300609946">
				<ele>201.53</ele>
				<time>2017-09-27T10:06:20Z</time>
			</trkpt>
			<trkpt lat="51.7701168358" lon="-2.2302256152">
				<ele>201.53</ele>
				<time>2017-09-27T10:06:32Z</time>
			</trkpt>
			<trkpt lat="51.7701789457" lon="-2.2303670179">
				<ele>201.53</ele>
				<time>2017-09-27T10:06:44Z</time>
			</trkpt>
			<trkpt lat="51.7702419776" lon="-2.2305458877">
				<ele>200.57</ele>
				<time>2017-09-27T10:06:59Z</time>
			</trkpt>
			<trkpt lat="51.7702463362" lon="-2.2305723745">
				<ele>204.42</ele>
				<time>2017-09-27T10:07:01Z</time>
			</trkpt>
			<trkpt lat="51.7702728231" lon="-2.2306893859">
				<ele>204.90</ele>
				<time>2017-09-27T10:07:13Z</time>
			</trkpt>
			<trkpt lat="51.7703245394" lon="-2.2307929024">
				<ele>206.34</ele>
				<time>2017-09-27T10:07:26Z</time>
			</trkpt>
			<trkpt lat="51.7704045866" lon="-2.2308865283">
				<ele>206.34</ele>
				<time>2017-09-27T10:07:46Z</time>
			</trkpt>
			<trkpt lat="51.7704473343" lon="-2.2310091555">
				<ele>208.74</ele>
				<time>2017-09-27T10:08:00Z</time>
			</trkpt>
			<trkpt lat="51.7704646848" lon="-2.2310480475">
				<ele>209.22</ele>
				<time>2017-09-27T10:08:08Z</time>
			</trkpt>
			<trkpt lat="51.7704784311" lon="-2.2310784739">
				<ele>209.22</ele>
				<time>2017-09-27T10:08:10Z</time>
			</trkpt>
			<trkpt lat="51.7705428880" lon="-2.2311918810">
				<ele>210.67</ele>
				<time>2017-09-27T10:08:25Z</time>
			</trkpt>
			<trkpt lat="51.7705462407" lon="-2.2312626243">
				<ele>211.63</ele>
				<time>2017-09-27T10:08:44Z</time>
			</trkpt>
			<trkpt lat="51.7705748230" lon="-2.2313078865">
				<ele>210.67</ele>
				<time>2017-09-27T10:08:50Z</time>
			</trkpt>
			<trkpt lat="51.7706008907" lon="-2.2314142529">
				<ele>214.03</ele>
				<time>2017-09-27T10:09:00Z</time>
			</trkpt>
			<trkpt lat="51.7706569657" lon="-2.2316449229">
				<ele>215.95</ele>
				<time>2017-09-27T10:09:13Z</time>
			</trkpt>
			<trkpt lat="51.7707622424" lon="-2.2319117188">
				<ele>216.43</ele>
				<time>2017-09-27T10:09:30Z</time>
			</trkpt>
			<trkpt lat="51.7708575446" lon="-2.2320782673">
				<ele>220.28</ele>
				<time>2017-09-27T10:09:44Z</time>
			</trkpt>
			<trkpt lat="51.7709309701" lon="-2.2321884893">
				<ele>220.76</ele>
				<time>2017-09-27T10:09:54Z</time>
			</trkpt>
			<trkpt lat="51.7709355801" lon="-2.2322269622">
				<ele>221.24</ele>
				<time>2017-09-27T10:09:56Z</time>
			</trkpt>
			<trkpt lat="51.7710034736" lon="-2.2324151359">
				<ele>223.64</ele>
				<time>2017-09-27T10:10:13Z</time>
			</trkpt>
			<trkpt lat="51.7710862868" lon="-2.2325985320">
				<ele>225.57</ele>
				<time>2017-09-27T10:10:30Z</time>
			</trkpt>
			<trkpt lat="51.7710924055" lon="-2.2326934151">
				<ele>223.64</ele>
				<time>2017-09-27T10:10:49Z</time>
			</trkpt>
			<trkpt lat="51.7710948363" lon="-2.2327240091">
				<ele>227.01</ele>
				<time>2017-09-27T10:10:52Z</time>
			</trkpt>
			<trkpt lat="51.7711779848" lon="-2.2328725364">
				<ele>227.01</ele>
				<time>2017-09-27T10:11:01Z</time>
			</trkpt>
			<trkpt lat="51.7712976784" lon="-2.2330488078">
				<ele>226.53</ele>
				<time>2017-09-27T10:11:18Z</time>
			</trkpt>
			<trkpt lat="51.7714208085" lon="-2.2332630493">
				<ele>227.01</ele>
				<time>2017-09-27T10:11:35Z</time>
			</trkpt>
			<trkpt lat="51.7715390772" lon="-2.2333642188">
				<ele>227.01</ele>
				<time>2017-09-27T10:11:50Z</time>
			</trkpt>
			<trkpt lat="51.7715368979" lon="-2.2334070504">
				<ele>227.49</ele>
				<time>2017-09-27T10:12:08Z</time>
			</trkpt>
			<trkpt lat="51.7715434358" lon="-2.2333740257">
				<ele>227.01</ele>
				<time>2017-09-27T10:12:21Z</time>
			</trkpt>
			<trkpt lat="51.7715505604" lon="-2.2333433479">
				<ele>227.49</ele>
				<time>2017-09-27T10:12:36Z</time>
			</trkpt>
			<trkpt lat="51.7715496384" lon="-2.2333460301">
				<ele>225.57</ele>
				<time>2017-09-27T10:12:58Z</time>
			</trkpt>
			<trkpt lat="51.7715524882" lon="-2.2333451919">
				<ele>226.53</ele>
				<time>2017-09-27T10:13:18Z</time>
			</trkpt>
			<trkpt lat="51.7715519015" lon="-2.2333561722">
				<ele>226.53</ele>
				<time>2017-09-27T10:13:37Z</time>
			</trkpt>
			<trkpt lat="51.7715427652" lon="-2.2333709244">
				<ele>225.57</ele>
				<time>2017-09-27T10:14:04Z</time>
			</trkpt>
			<trkpt lat="51.7715488002" lon="-2.2333437670">
				<ele>226.05</ele>
				<time>2017-09-27T10:14:16Z</time>
			</trkpt>
			<trkpt lat="51.7715468723" lon="-2.2333463654">
				<ele>231.33</ele>
				<time>2017-09-27T10:14:26Z</time>
			</trkpt>
			<trkpt lat="51.7715429328" lon="-2.2333465330">
				<ele>227.49</ele>
				<time>2017-09-27T10:14:27Z</time>
			</trkpt>
			<trkpt lat="51.7715383228" lon="-2.2333436832">
				<ele>227.01</ele>
				<time>2017-09-27T10:14:42Z</time>
			</trkpt>
			<trkpt lat="51.7715415917" lon="-2.2333404981">
				<ele>227.49</ele>
				<time>2017-09-27T10:14:59Z</time>
			</trkpt>
			<trkpt lat="51.7715450283" lon="-2.2333420906">
				<ele>231.33</ele>
				<time>2017-09-27T10:15:22Z</time>
			</trkpt>
			<trkpt lat="51.7715455312" lon="-2.2333425097">
				<ele>227.97</ele>
				<time>2017-09-27T10:15:23Z</time>
			</trkpt>
			<trkpt lat="51.7715454474" lon="-2.2333420068">
				<ele>227.49</ele>
				<time>2017-09-27T10:15:25Z</time>
			</trkpt>
			<trkpt lat="51.7715262529" lon="-2.2333825752">
				<ele>227.01</ele>
				<time>2017-09-27T10:15:43Z</time>
			</trkpt>
			<trkpt lat="51.7715104111" lon="-2.2333796415">
				<ele>226.53</ele>
				<time>2017-09-27T10:15:58Z</time>
			</trkpt>
			<trkpt lat="51.7714973353" lon="-2.2334081400">
				<ele>227.49</ele>
				<time>2017-09-27T10:16:15Z</time>
			</trkpt>
			<trkpt lat="51.7714949884" lon="-2.2334084753">
				<ele>227.01</ele>
				<time>2017-09-27T10:16:41Z</time>
			</trkpt>
			<trkpt lat="51.7714928929" lon="-2.2334096488">
				<ele>226.53</ele>
				<time>2017-09-27T10:17:13Z</time>
			</trkpt>
			<trkpt lat="51.7714970000" lon="-2.2334126662">
				<ele>227.49</ele>
				<time>2017-09-27T10:17:44Z</time>
			</trkpt>
			<trkpt lat="51.7714973353" lon="-2.2334152646">
				<ele>227.49</ele>
				<time>2017-09-27T10:18:14Z</time>
			</trkpt>
			<trkpt lat="51.7714972515" lon="-2.2334187012">
				<ele>227.49</ele>
				<time>2017-09-27T10:18:49Z</time>
			</trkpt>
			<trkpt lat="51.7714958265" lon="-2.2334194556">
				<ele>227.01</ele>
				<time>2017-09-27T10:19:15Z</time>
			</trkpt>
			<trkpt lat="51.7714974191" lon="-2.2334217187">
				<ele>227.49</ele>
				<time>2017-09-27T10:20:21Z</time>
			</trkpt>
			<trkpt lat="51.7714994308" lon="-2.2334253229">
				<ele>227.97</ele>
				<time>2017-09-27T10:20:50Z</time>
			</trkpt>
			<trkpt lat="51.7715016101" lon="-2.2334270831">
				<ele>227.01</ele>
				<time>2017-09-27T10:21:20Z</time>
			</trkpt>
			<trkpt lat="51.7715019453" lon="-2.2334339563">
				<ele>227.97</ele>
				<time>2017-09-27T10:21:46Z</time>
			</trkpt>
			<trkpt lat="51.7715020292" lon="-2.2334347945">
				<ele>227.97</ele>
				<time>2017-09-27T10:22:16Z</time>
			</trkpt>
			<trkpt lat="51.7714995146" lon="-2.2334316932">
				<ele>227.97</ele>
				<time>2017-09-27T10:22:44Z</time>
			</trkpt>
			<trkpt lat="51.7714977544" lon="-2.2334304359">
				<ele>227.49</ele>
				<time>2017-09-27T10:23:13Z</time>
			</trkpt>
			<trkpt lat="51.7715251632" lon="-2.2333548311">
				<ele>227.97</ele>
				<time>2017-09-27T10:23:27Z</time>
			</trkpt>
			<trkpt lat="51.7715312820" lon="-2.2333444376">
				<ele>227.49</ele>
				<time>2017-09-27T10:23:45Z</time>
			</trkpt>
			<trkpt lat="51.7715326231" lon="-2.2333478741">
				<ele>227.01</ele>
				<time>2017-09-27T10:24:10Z</time>
			</trkpt>
			<trkpt lat="51.7715245765" lon="-2.2333985008">
				<ele>227.97</ele>
				<time>2017-09-27T10:24:24Z</time>
			</trkpt>
			<trkpt lat="51.7715181224" lon="-2.2334139235">
				<ele>228.45</ele>
				<time>2017-09-27T10:24:41Z</time>
			</trkpt>
			<trkpt lat="51.7715159431" lon="-2.2334075533">
				<ele>227.01</ele>
				<time>2017-09-27T10:25:00Z</time>
			</trkpt>
			<trkpt lat="51.7715334613" lon="-2.2333392408">
				<ele>227.97</ele>
				<time>2017-09-27T10:25:13Z</time>
			</trkpt>
			<trkpt lat="51.7715317011" lon="-2.2333399951">
				<ele>227.49</ele>
				<time>2017-09-27T10:25:30Z</time>
			</trkpt>
			<trkpt lat="51.7715335451" lon="-2.2333441023">
				<ele>227.01</ele>
				<time>2017-09-27T10:25:51Z</time>
			</trkpt>
			<trkpt lat="51.7715270072" lon="-2.2333575133">
				<ele>226.53</ele>
				<time>2017-09-27T10:25:52Z</time>
			</trkpt>
			<trkpt lat="51.7715218943" lon="-2.2334696632">
				<ele>227.49</ele>
				<time>2017-09-27T10:26:04Z</time>
			</trkpt>
			<trkpt lat="51.7715614568" lon="-2.2337710764">
				<ele>229.89</ele>
				<time>2017-09-27T10:26:24Z</time>
			</trkpt>
			<trkpt lat="51.7715605348" lon="-2.2340332624">
				<ele>233.26</ele>
				<time>2017-09-27T10:26:42Z</time>
			</trkpt>
			<trkpt lat="51.7715843394" lon="-2.2342749126">
				<ele>234.70</ele>
				<time>2017-09-27T10:27:02Z</time>
			</trkpt>
			<trkpt lat="51.7715820763" lon="-2.2342968732">
				<ele>235.18</ele>
				<time>2017-09-27T10:27:14Z</time>
			</trkpt>
			<trkpt lat="51.7715819087" lon="-2.2343885712">
				<ele>236.14</ele>
				<time>2017-09-27T10:27:36Z</time>
			</trkpt>
			<trkpt lat="51.7716446053" lon="-2.2346127871">
				<ele>236.62</ele>
				<time>2017-09-27T10:27:55Z</time>
			</trkpt>
			<trkpt lat="51.7717209645" lon="-2.2347928304">
				<ele>238.54</ele>
				<time>2017-09-27T10:28:14Z</time>
			</trkpt>
			<trkpt lat="51.7718423344" lon="-2.2350647394">
				<ele>239.99</ele>
				<time>2017-09-27T10:28:31Z</time>
			</trkpt>
			<trkpt lat="51.7718703300" lon="-2.2351834271">
				<ele>239.02</ele>
				<time>2017-09-27T10:28:40Z</time>
			</trkpt>
			<trkpt lat="51.7718853336" lon="-2.2352856025">
				<ele>239.51</ele>
				<time>2017-09-27T10:28:52Z</time>
			</trkpt>
			<trkpt lat="51.7718614452" lon="-2.2353938129">
				<ele>239.51</ele>
				<time>2017-09-27T10:28:59Z</time>
			</trkpt>
			<trkpt lat="51.7718376406" lon="-2.2355283424">
				<ele>239.99</ele>
				<time>2017-09-27T10:29:12Z</time>
			</trkpt>
			<trkpt lat="51.7718375567" lon="-2.2355276719">
				<ele>239.51</ele>
				<time>2017-09-27T10:29:14Z</time>
			</trkpt>
			<trkpt lat="51.7717617843" lon="-2.2355388198">
				<ele>239.51</ele>
				<time>2017-09-27T10:29:23Z</time>
			</trkpt>
			<trkpt lat="51.7716640513" lon="-2.2355518118">
				<ele>239.02</ele>
				<time>2017-09-27T10:29:33Z</time>
			</trkpt>
			<trkpt lat="51.7715560924" lon="-2.2356155980">
				<ele>238.54</ele>
				<time>2017-09-27T10:29:50Z</time>
			</trkpt>
			<trkpt lat="51.7714910489" lon="-2.2356744390">
				<ele>238.06</ele>
				<time>2017-09-27T10:30:05Z</time>
			</trkpt>
			<trkpt lat="51.7713773064" lon="-2.2357928753">
				<ele>237.58</ele>
				<time>2017-09-27T10:30:20Z</time>
			</trkpt>
			<trkpt lat="51.7712694313" lon="-2.2359832283">
				<ele>237.10</ele>
				<time>2017-09-27T10:30:36Z</time>
			</trkpt>
			<trkpt lat="51.7712052260" lon="-2.2361057717">
				<ele>236.62</ele>
				<time>2017-09-27T10:30:45Z</time>
			</trkpt>
			<trkpt lat="51.7711148690" lon="-2.2362368647">
				<ele>236.62</ele>
				<time>2017-09-27T10:31:01Z</time>
			</trkpt>
			<trkpt lat="51.7710948363" lon="-2.2362677939">
				<ele>236.62</ele>
				<time>2017-09-27T10:31:23Z</time>
			</trkpt>
			<trkpt lat="51.7710707802" lon="-2.2363814525">
				<ele>236.14</ele>
				<time>2017-09-27T10:31:38Z</time>
			</trkpt>
			<trkpt lat="51.7710422818" lon="-2.2364350129">
				<ele>236.14</ele>
				<time>2017-09-27T10:31:59Z</time>
			</trkpt>
			<trkpt lat="51.7710398510" lon="-2.2364684567">
				<ele>236.62</ele>
				<time>2017-09-27T10:32:31Z</time>
			</trkpt>
			<trkpt lat="51.7710488196" lon="-2.2364697140">
				<ele>236.62</ele>
				<time>2017-09-27T10:32:50Z</time>
			</trkpt>
			<trkpt lat="51.7711071577" lon="-2.2366079316">
				<ele>239.51</ele>
				<time>2017-09-27T10:33:08Z</time>
			</trkpt>
			<trkpt lat="51.7711709440" lon="-2.2368898988">
				<ele>239.99</ele>
				<time>2017-09-27T10:33:28Z</time>
			</trkpt>
			<trkpt lat="51.7711867858" lon="-2.2371618915">
				<ele>241.43</ele>
				<time>2017-09-27T10:33:48Z</time>
			</trkpt>
			<trkpt lat="51.7712240852" lon="-2.2373127658">
				<ele>241.91</ele>
				<time>2017-09-27T10:34:10Z</time>
			</trkpt>
			<trkpt lat="51.7712482251" lon="-2.2373917233">
				<ele>242.39</ele>
				<time>2017-09-27T10:34:31Z</time>
			</trkpt>
			<trkpt lat="51.7712198943" lon="-2.2374664061">
				<ele>242.39</ele>
				<time>2017-09-27T10:34:54Z</time>
			</trkpt>
			<trkpt lat="51.7712585349" lon="-2.2376248240">
				<ele>242.39</ele>
				<time>2017-09-27T10:35:13Z</time>
			</trkpt>
			<trkpt lat="51.7712320480" lon="-2.2378665581">
				<ele>241.43</ele>
				<time>2017-09-27T10:35:28Z</time>
			</trkpt>
			<trkpt lat="51.7712421902" lon="-2.2381362878">
				<ele>242.39</ele>
				<time>2017-09-27T10:35:47Z</time>
			</trkpt>
			<trkpt lat="51.7713300325" lon="-2.2383812908">
				<ele>243.35</ele>
				<time>2017-09-27T10:36:08Z</time>
			</trkpt>
			<trkpt lat="51.7713716906" lon="-2.2385874018">
				<ele>243.35</ele>
				<time>2017-09-27T10:36:27Z</time>
			</trkpt>
			<trkpt lat="51.7713390011" lon="-2.2388103604">
				<ele>242.87</ele>
				<time>2017-09-27T10:36:44Z</time>
			</trkpt>
			<trkpt lat="51.7712780647" lon="-2.2390774917">
				<ele>242.39</ele>
				<time>2017-09-27T10:37:03Z</time>
			</trkpt>
			<trkpt lat="51.7712842673" lon="-2.2391045652">
				<ele>242.39</ele>
				<time>2017-09-27T10:37:25Z</time>
			</trkpt>
			<trkpt lat="51.7711776495" lon="-2.2392406035">
				<ele>241.43</ele>
				<time>2017-09-27T10:37:42Z</time>
			</trkpt>
			<trkpt lat="51.7709945887" lon="-2.2394333873">
				<ele>240.95</ele>
				<time>2017-09-27T10:38:01Z</time>
			</trkpt>
			<trkpt lat="51.7709106021" lon="-2.2395855188">
				<ele>240.47</ele>
				<time>2017-09-27T10:38:16Z</time>
			</trkpt>
			<trkpt lat="51.7707450595" lon="-2.2397828288">
				<ele>239.51</ele>
				<time>2017-09-27T10:38:33Z</time>
			</trkpt>
			<trkpt lat="51.7705984600" lon="-2.2398807295">
				<ele>238.54</ele>
				<time>2017-09-27T10:38:49Z</time>
			</trkpt>
			<trkpt lat="51.7704702169" lon="-2.2399573401">
				<ele>238.54</ele>
				<time>2017-09-27T10:39:08Z</time>
			</trkpt>
			<trkpt lat="51.7703210190" lon="-2.2400821466">
				<ele>238.06</ele>
				<time>2017-09-27T10:39:21Z</time>
			</trkpt>
			<trkpt lat="51.7702422291" lon="-2.2403046023">
				<ele>237.58</ele>
				<time>2017-09-27T10:39:35Z</time>
			</trkpt>
			<trkpt lat="51.7702021636" lon="-2.2404453345">
				<ele>236.14</ele>
				<time>2017-09-27T10:39:49Z</time>
			</trkpt>
			<trkpt lat="51.7701385450" lon="-2.2406461649">
				<ele>235.18</ele>
				<time>2017-09-27T10:40:05Z</time>
			</trkpt>
			<trkpt lat="51.7701356113" lon="-2.2406855598">
				<ele>235.18</ele>
				<time>2017-09-27T10:40:31Z</time>
			</trkpt>
			<trkpt lat="51.7701241281" lon="-2.2407231107">
				<ele>235.66</ele>
				<time>2017-09-27T10:40:55Z</time>
			</trkpt>
			<trkpt lat="51.7700589169" lon="-2.2408801038">
				<ele>233.26</ele>
				<time>2017-09-27T10:41:13Z</time>
			</trkpt>
			<trkpt lat="51.7699476052" lon="-2.2411584668">
				<ele>232.30</ele>
				<time>2017-09-27T10:41:33Z</time>
			</trkpt>
			<trkpt lat="51.7698979843" lon="-2.2413504124">
				<ele>231.33</ele>
				<time>2017-09-27T10:41:51Z</time>
			</trkpt>
			<trkpt lat="51.7698560748" lon="-2.2414173000">
				<ele>230.37</ele>
				<time>2017-09-27T10:42:12Z</time>
			</trkpt>
			<trkpt lat="51.7697420809" lon="-2.2415948287">
				<ele>229.41</ele>
				<time>2017-09-27T10:42:29Z</time>
			</trkpt>
			<trkpt lat="51.7695746105" lon="-2.2417946532">
				<ele>228.93</ele>
				<time>2017-09-27T10:42:47Z</time>
			</trkpt>
			<trkpt lat="51.7693810724" lon="-2.2420787159">
				<ele>227.49</ele>
				<time>2017-09-27T10:43:08Z</time>
			</trkpt>
			<trkpt lat="51.7692814954" lon="-2.2422707453">
				<ele>226.53</ele>
				<time>2017-09-27T10:43:24Z</time>
			</trkpt>
			<trkpt lat="51.7691155337" lon="-2.2425340209">
				<ele>225.57</ele>
				<time>2017-09-27T10:43:41Z</time>
			</trkpt>
			<trkpt lat="51.7690822575" lon="-2.2425771039">
				<ele>224.12</ele>
				<time>2017-09-27T10:43:44Z</time>
			</trkpt>
			<trkpt lat="51.7689561099" lon="-2.2427988891">
				<ele>223.16</ele>
				<time>2017-09-27T10:44:01Z</time>
			</trkpt>
			<trkpt lat="51.7688411102" lon="-2.2430563811">
				<ele>221.24</ele>
				<time>2017-09-27T10:44:20Z</time>
			</trkpt>
			<trkpt lat="51.7687104363" lon="-2.2433008812">
				<ele>219.80</ele>
				<time>2017-09-27T10:44:37Z</time>
			</trkpt>
			<trkpt lat="51.7686632462" lon="-2.2434179764">
				<ele>218.36</ele>
				<time>2017-09-27T10:44:53Z</time>
			</trkpt>
			<trkpt lat="51.7686430458" lon="-2.2434684355">
				<ele>218.36</ele>
				<time>2017-09-27T10:45:16Z</time>
			</trkpt>
			<trkpt lat="51.7685870547" lon="-2.2435679287">
				<ele>216.91</ele>
				<time>2017-09-27T10:45:36Z</time>
			</trkpt>
			<trkpt lat="51.7683623359" lon="-2.2437276039">
				<ele>217.40</ele>
				<time>2017-09-27T10:45:56Z</time>
			</trkpt>
			<trkpt lat="51.7682393733" lon="-2.2438505664">
				<ele>216.91</ele>
				<time>2017-09-27T10:46:12Z</time>
			</trkpt>
			<trkpt lat="51.7681544647" lon="-2.2439603694">
				<ele>216.43</ele>
				<time>2017-09-27T10:46:28Z</time>
			</trkpt>
			<trkpt lat="51.7679600883" lon="-2.2442184482">
				<ele>215.47</ele>
				<time>2017-09-27T10:46:43Z</time>
			</trkpt>
			<trkpt lat="51.7678144947" lon="-2.2443685681">
				<ele>215.47</ele>
				<time>2017-09-27T10:46:58Z</time>
			</trkpt>
			<trkpt lat="51.7676366307" lon="-2.2445144132">
				<ele>215.47</ele>
				<time>2017-09-27T10:47:16Z</time>
			</trkpt>
			<trkpt lat="51.7675328627" lon="-2.2446324304">
				<ele>215.95</ele>
				<time>2017-09-27T10:47:34Z</time>
			</trkpt>
			<trkpt lat="51.7673081439" lon="-2.2447175067">
				<ele>214.99</ele>
				<time>2017-09-27T10:47:51Z</time>
			</trkpt>
			<trkpt lat="51.7672078963" lon="-2.2447808739">
				<ele>215.47</ele>
				<time>2017-09-27T10:48:10Z</time>
			</trkpt>
			<trkpt lat="51.7670890409" lon="-2.2448403016">
				<ele>215.47</ele>
				<time>2017-09-27T10:48:27Z</time>
			</trkpt>
			<trkpt lat="51.7669170443" lon="-2.2449180856">
				<ele>215.95</ele>
				<time>2017-09-27T10:48:44Z</time>
			</trkpt>
			<trkpt lat="51.7667582911" lon="-2.2449927684">
				<ele>216.43</ele>
				<time>2017-09-27T10:49:04Z</time>
			</trkpt>
			<trkpt lat="51.7665676028" lon="-2.2450981289">
				<ele>215.47</ele>
				<time>2017-09-27T10:49:23Z</time>
			</trkpt>
			<trkpt lat="51.7663854640" lon="-2.2451506834">
				<ele>215.47</ele>
				<time>2017-09-27T10:49:39Z</time>
			</trkpt>
			<trkpt lat="51.7660392914" lon="-2.2452610731">
				<ele>216.43</ele>
				<time>2017-09-27T10:49:58Z</time>
			</trkpt>
			<trkpt lat="51.7660099547" lon="-2.2452753223">
				<ele>216.91</ele>
				<time>2017-09-27T10:50:16Z</time>
			</trkpt>
			<trkpt lat="51.7658482678" lon="-2.2453750670">
				<ele>217.88</ele>
				<time>2017-09-27T10:50:35Z</time>
			</trkpt>
			<trkpt lat="51.7657773569" lon="-2.2454614006">
				<ele>217.40</ele>
				<time>2017-09-27T10:50:50Z</time>
			</trkpt>
			<trkpt lat="51.7655357905" lon="-2.2457040567">
				<ele>217.40</ele>
				<time>2017-09-27T10:51:09Z</time>
			</trkpt>
			<trkpt lat="51.7652947269" lon="-2.2459204774">
				<ele>217.40</ele>
				<time>2017-09-27T10:51:27Z</time>
			</trkpt>
			<trkpt lat="51.7650986742" lon="-2.2460558452">
				<ele>217.88</ele>
				<time>2017-09-27T10:51:45Z</time>
			</trkpt>
			<trkpt lat="51.7649831716" lon="-2.2461747006">
				<ele>218.36</ele>
				<time>2017-09-27T10:52:02Z</time>
			</trkpt>
			<trkpt lat="51.7647944950" lon="-2.2463955637">
				<ele>218.84</ele>
				<time>2017-09-27T10:52:22Z</time>
			</trkpt>
			<trkpt lat="51.7646612227" lon="-2.2465475276">
				<ele>218.84</ele>
				<time>2017-09-27T10:52:41Z</time>
			</trkpt>
			<trkpt lat="51.7644976918" lon="-2.2466932889">
				<ele>218.84</ele>
				<time>2017-09-27T10:53:01Z</time>
			</trkpt>
			<trkpt lat="51.7643346637" lon="-2.2468821332">
				<ele>218.36</ele>
				<time>2017-09-27T10:53:18Z</time>
			</trkpt>
			<trkpt lat="51.7642989568" lon="-2.2469086200">
				<ele>218.36</ele>
				<time>2017-09-27T10:53:36Z</time>
			</trkpt>
			<trkpt lat="51.7642411217" lon="-2.2470753361">
				<ele>217.88</ele>
				<time>2017-09-27T10:53:55Z</time>
			</trkpt>
			<trkpt lat="51.7641875613" lon="-2.2472280543">
				<ele>217.40</ele>
				<time>2017-09-27T10:54:15Z</time>
			</trkpt>
			<trkpt lat="51.7641351745" lon="-2.2473438922">
				<ele>215.95</ele>
				<time>2017-09-27T10:54:35Z</time>
			</trkpt>
			<trkpt lat="51.7638993077" lon="-2.2476577945">
				<ele>214.99</ele>
				<time>2017-09-27T10:54:51Z</time>
			</trkpt>
			<trkpt lat="51.7638367787" lon="-2.2478618100">
				<ele>214.03</ele>
				<time>2017-09-27T10:55:09Z</time>
			</trkpt>
			<trkpt lat="51.7638193443" lon="-2.2478849441">
				<ele>214.51</ele>
				<time>2017-09-27T10:55:10Z</time>
			</trkpt>
			<trkpt lat="51.7635299172" lon="-2.2482373193">
				<ele>214.99</ele>
				<time>2017-09-27T10:55:29Z</time>
			</trkpt>
			<trkpt lat="51.7634375487" lon="-2.2485000920">
				<ele>214.51</ele>
				<time>2017-09-27T10:55:50Z</time>
			</trkpt>
			<trkpt lat="51.7633735109" lon="-2.2486686520">
				<ele>214.03</ele>
				<time>2017-09-27T10:56:08Z</time>
			</trkpt>
			<trkpt lat="51.7633385584" lon="-2.2488335241">
				<ele>213.07</ele>
				<time>2017-09-27T10:56:26Z</time>
			</trkpt>
			<trkpt lat="51.7630902026" lon="-2.2489930317">
				<ele>214.03</ele>
				<time>2017-09-27T10:56:46Z</time>
			</trkpt>
			<trkpt lat="51.7630798928" lon="-2.2491544671">
				<ele>214.51</ele>
				<time>2017-09-27T10:57:09Z</time>
			</trkpt>
			<trkpt lat="51.7630166933" lon="-2.2491125576">
				<ele>214.99</ele>
				<time>2017-09-27T10:57:29Z</time>
			</trkpt>
			<trkpt lat="51.7628892045" lon="-2.2488530539">
				<ele>216.43</ele>
				<time>2017-09-27T10:57:47Z</time>
			</trkpt>
			<trkpt lat="51.7628800683" lon="-2.2488644533">
				<ele>217.40</ele>
				<time>2017-09-27T10:58:05Z</time>
			</trkpt>
			<trkpt lat="51.7627469636" lon="-2.2492404655">
				<ele>215.95</ele>
				<time>2017-09-27T10:58:26Z</time>
			</trkpt>
			<trkpt lat="51.7626575287" lon="-2.2494968679">
				<ele>216.43</ele>
				<time>2017-09-27T10:58:43Z</time>
			</trkpt>
			<trkpt lat="51.7625886295" lon="-2.2496808507">
				<ele>214.99</ele>
				<time>2017-09-27T10:59:01Z</time>
			</trkpt>
			<trkpt lat="51.7624902260" lon="-2.2500334773">
				<ele>213.07</ele>
				<time>2017-09-27T10:59:20Z</time>
			</trkpt>
			<trkpt lat="51.7624882143" lon="-2.2500828467">
				<ele>213.55</ele>
				<time>2017-09-27T10:59:36Z</time>
			</trkpt>
			<trkpt lat="51.7623943370" lon="-2.2503447812">
				<ele>214.03</ele>
				<time>2017-09-27T10:59:54Z</time>
			</trkpt>
			<trkpt lat="51.7623139545" lon="-2.2506710049">
				<ele>214.51</ele>
				<time>2017-09-27T11:00:13Z</time>
			</trkpt>
			<trkpt lat="51.7622655071" lon="-2.2508868389">
				<ele>215.47</ele>
				<time>2017-09-27T11:00:28Z</time>
			</trkpt>
			<trkpt lat="51.7621730547" lon="-2.2512720712">
				<ele>216.43</ele>
				<time>2017-09-27T11:00:49Z</time>
			</trkpt>
			<trkpt lat="51.7620978691" lon="-2.2515969537">
				<ele>216.91</ele>
				<time>2017-09-27T11:01:09Z</time>
			</trkpt>
			<trkpt lat="51.7620614916" lon="-2.2518193256">
				<ele>217.40</ele>
				<time>2017-09-27T11:01:25Z</time>
			</trkpt>
			<trkpt lat="51.7619975377" lon="-2.2519822698">
				<ele>216.91</ele>
				<time>2017-09-27T11:01:44Z</time>
			</trkpt>
			<trkpt lat="51.7620306462" lon="-2.2520939168">
				<ele>217.40</ele>
				<time>2017-09-27T11:02:01Z</time>
			</trkpt>
			<trkpt lat="51.7620263714" lon="-2.2521458007">
				<ele>217.40</ele>
				<time>2017-09-27T11:02:27Z</time>
			</trkpt>
			<trkpt lat="51.7620165646" lon="-2.2521626484">
				<ele>217.88</ele>
				<time>2017-09-27T11:02:29Z</time>
			</trkpt>
			<trkpt lat="51.7619503476" lon="-2.2522827610">
				<ele>218.36</ele>
				<time>2017-09-27T11:02:44Z</time>
			</trkpt>
			<trkpt lat="51.7618656065" lon="-2.2525452822">
				<ele>218.84</ele>
				<time>2017-09-27T11:03:01Z</time>
			</trkpt>
			<trkpt lat="51.7618195899" lon="-2.2528389003">
				<ele>217.88</ele>
				<time>2017-09-27T11:03:19Z</time>
			</trkpt>
			<trkpt lat="51.7617669515" lon="-2.2530739289">
				<ele>217.40</ele>
				<time>2017-09-27T11:03:34Z</time>
			</trkpt>
			<trkpt lat="51.7617195100" lon="-2.2532344423">
				<ele>218.36</ele>
				<time>2017-09-27T11:03:49Z</time>
			</trkpt>
			<trkpt lat="51.7616287339" lon="-2.2535490990">
				<ele>219.80</ele>
				<time>2017-09-27T11:04:08Z</time>
			</trkpt>
			<trkpt lat="51.7616005708" lon="-2.2537469957">
				<ele>220.76</ele>
				<time>2017-09-27T11:04:24Z</time>
			</trkpt>
			<trkpt lat="51.7615751736" lon="-2.2539487481">
				<ele>223.64</ele>
				<time>2017-09-27T11:04:43Z</time>
			</trkpt>
			<trkpt lat="51.7615053523" lon="-2.2542522568">
				<ele>223.16</ele>
				<time>2017-09-27T11:04:59Z</time>
			</trkpt>
			<trkpt lat="51.7615009937" lon="-2.2544870339">
				<ele>223.16</ele>
				<time>2017-09-27T11:05:14Z</time>
			</trkpt>
			<trkpt lat="51.7614672985" lon="-2.2547182068">
				<ele>223.16</ele>
				<time>2017-09-27T11:05:31Z</time>
			</trkpt>
			<trkpt lat="51.7613977287" lon="-2.2548994236">
				<ele>224.12</ele>
				<time>2017-09-27T11:05:46Z</time>
			</trkpt>
			<trkpt lat="51.7612890154" lon="-2.2551919520">
				<ele>223.16</ele>
				<time>2017-09-27T11:06:05Z</time>
			</trkpt>
			<trkpt lat="51.7611580063" lon="-2.2554219514">
				<ele>222.20</ele>
				<time>2017-09-27T11:06:21Z</time>
			</trkpt>
			<trkpt lat="51.7610953934" lon="-2.2555760946">
				<ele>222.20</ele>
				<time>2017-09-27T11:06:37Z</time>
			</trkpt>
			<trkpt lat="51.7609354667" lon="-2.2558852192">
				<ele>221.24</ele>
				<time>2017-09-27T11:06:55Z</time>
			</trkpt>
			<trkpt lat="51.7608332075" lon="-2.2560335789">
				<ele>221.72</ele>
				<time>2017-09-27T11:07:11Z</time>
			</trkpt>
			<trkpt lat="51.7606980074" lon="-2.2561092675">
				<ele>221.24</ele>
				<time>2017-09-27T11:07:30Z</time>
			</trkpt>
			<trkpt lat="51.7605893780" lon="-2.2561014723">
				<ele>220.76</ele>
				<time>2017-09-27T11:07:49Z</time>
			</trkpt>
			<trkpt lat="51.7604121007" lon="-2.2561318148">
				<ele>221.24</ele>
				<time>2017-09-27T11:08:07Z</time>
			</trkpt>
			<trkpt lat="51.7602540180" lon="-2.2562153824">
				<ele>220.28</ele>
				<time>2017-09-27T11:08:22Z</time>
			</trkpt>
			<trkpt lat="51.7601790838" lon="-2.2562437132">
				<ele>219.80</ele>
				<time>2017-09-27T11:08:34Z</time>
			</trkpt>
			<trkpt lat="51.7600196600" lon="-2.2562852036">
				<ele>217.88</ele>
				<time>2017-09-27T11:08:50Z</time>
			</trkpt>
			<trkpt lat="51.7598403711" lon="-2.2563214134">
				<ele>216.43</ele>
				<time>2017-09-27T11:09:07Z</time>
			</trkpt>
			<trkpt lat="51.7596848030" lon="-2.2562854551">
				<ele>215.95</ele>
				<time>2017-09-27T11:09:24Z</time>
			</trkpt>
			<trkpt lat="51.7594958749" lon="-2.2561866324">
				<ele>214.99</ele>
				<time>2017-09-27T11:09:43Z</time>
			</trkpt>
			<trkpt lat="51.7594786081" lon="-2.2561770771">
				<ele>214.99</ele>
				<time>2017-09-27T11:10:07Z</time>
			</trkpt>
			<trkpt lat="51.7593899276" lon="-2.2561640013">
				<ele>213.55</ele>
				<time>2017-09-27T11:10:23Z</time>
			</trkpt>
			<trkpt lat="51.7592168413" lon="-2.2561870515">
				<ele>213.07</ele>
				<time>2017-09-27T11:10:39Z</time>
			</trkpt>
			<trkpt lat="51.7591938749" lon="-2.2561842017">
				<ele>213.07</ele>
				<time>2017-09-27T11:10:59Z</time>
			</trkpt>
			<trkpt lat="51.7592291627" lon="-2.2560253646">
				<ele>212.59</ele>
				<time>2017-09-27T11:11:15Z</time>
			</trkpt>
			<trkpt lat="51.7591698188" lon="-2.2558495123">
				<ele>211.63</ele>
				<time>2017-09-27T11:11:30Z</time>
			</trkpt>
			<trkpt lat="51.7592737544" lon="-2.2556285653">
				<ele>212.11</ele>
				<time>2017-09-27T11:11:50Z</time>
			</trkpt>
			<trkpt lat="51.7593397200" lon="-2.2555386275">
				<ele>213.07</ele>
				<time>2017-09-27T11:12:09Z</time>
			</trkpt>
			<trkpt lat="51.7593562324" lon="-2.2553776111">
				<ele>212.59</ele>
				<time>2017-09-27T11:12:26Z</time>
			</trkpt>
			<trkpt lat="51.7594551388" lon="-2.2550794668">
				<ele>212.11</ele>
				<time>2017-09-27T11:12:46Z</time>
			</trkpt>
			<trkpt lat="51.7595465016" lon="-2.2548379842">
				<ele>211.63</ele>
				<time>2017-09-27T11:13:04Z</time>
			</trkpt>
			<trkpt lat="51.7595365271" lon="-2.2547366470">
				<ele>210.19</ele>
				<time>2017-09-27T11:13:23Z</time>
			</trkpt>
			<trkpt lat="51.7595264688" lon="-2.2547325399">
				<ele>209.70</ele>
				<time>2017-09-27T11:13:42Z</time>
			</trkpt>
			<trkpt lat="51.7595230322" lon="-2.2547436878">
				<ele>212.59</ele>
				<time>2017-09-27T11:13:43Z</time>
			</trkpt>
			<trkpt lat="51.7595169134" lon="-2.2547517344">
				<ele>207.78</ele>
				<time>2017-09-27T11:13:45Z</time>
			</trkpt>
			<trkpt lat="51.7595178355" lon="-2.2547495551">
				<ele>211.15</ele>
				<time>2017-09-27T11:13:52Z</time>
			</trkpt>
			<trkpt lat="51.7595125549" lon="-2.2547382396">
				<ele>210.19</ele>
				<time>2017-09-27T11:14:20Z</time>
			</trkpt>
			<trkpt lat="51.7594876606" lon="-2.2547134291">
				<ele>209.70</ele>
				<time>2017-09-27T11:14:43Z</time>
			</trkpt>
			<trkpt lat="51.7594730761" lon="-2.2546928935">
				<ele>210.19</ele>
				<time>2017-09-27T11:14:50Z</time>
			</trkpt>
			<trkpt lat="51.7593852337" lon="-2.2546265088">
				<ele>207.78</ele>
				<time>2017-09-27T11:15:02Z</time>
			</trkpt>
			<trkpt lat="51.7593583278" lon="-2.2546028718">
				<ele>207.30</ele>
				<time>2017-09-27T11:15:17Z</time>
			</trkpt>
			<trkpt lat="51.7593488563" lon="-2.2545991000">
				<ele>206.82</ele>
				<time>2017-09-27T11:15:31Z</time>
			</trkpt>
			<trkpt lat="51.7593592498" lon="-2.2545847669">
				<ele>202.98</ele>
				<time>2017-09-27T11:15:49Z</time>
			</trkpt>
			<trkpt lat="51.7593589146" lon="-2.2545832582">
				<ele>207.30</ele>
				<time>2017-09-27T11:15:50Z</time>
			</trkpt>
			<trkpt lat="51.7593538016" lon="-2.2545032948">
				<ele>206.82</ele>
				<time>2017-09-27T11:16:00Z</time>
			</trkpt>
			<trkpt lat="51.7593336850" lon="-2.2544488125">
				<ele>205.38</ele>
				<time>2017-09-27T11:16:03Z</time>
			</trkpt>
			<trkpt lat="51.7593191843" lon="-2.2544093337">
				<ele>204.90</ele>
				<time>2017-09-27T11:16:06Z</time>
			</trkpt>
			<trkpt lat="51.7592903506" lon="-2.2542182263">
				<ele>201.53</ele>
				<time>2017-09-27T11:16:19Z</time>
			</trkpt>
			<trkpt lat="51.7592672165" lon="-2.2540349979">
				<ele>200.09</ele>
				<time>2017-09-27T11:16:31Z</time>
			</trkpt>
			<trkpt lat="51.7592465132" lon="-2.2538949363">
				<ele>198.17</ele>
				<time>2017-09-27T11:16:40Z</time>
			</trkpt>
			<trkpt lat="51.7591874208" lon="-2.2537557967">
				<ele>195.28</ele>
				<time>2017-09-27T11:16:52Z</time>
			</trkpt>
			<trkpt lat="51.7591243051" lon="-2.2537138034">
				<ele>193.84</ele>
				<time>2017-09-27T11:17:06Z</time>
			</trkpt>
			<trkpt lat="51.7590811383" lon="-2.2536326665">
				<ele>190.96</ele>
				<time>2017-09-27T11:17:14Z</time>
			</trkpt>
			<trkpt lat="51.7590365466" lon="-2.2535965405">
				<ele>190.00</ele>
				<time>2017-09-27T11:17:30Z</time>
			</trkpt>
			<trkpt lat="51.7589704972" lon="-2.2535268031">
				<ele>188.56</ele>
				<time>2017-09-27T11:17:42Z</time>
			</trkpt>
			<trkpt lat="51.7589250673" lon="-2.2534237895">
				<ele>185.19</ele>
				<time>2017-09-27T11:17:56Z</time>
			</trkpt>
			<trkpt lat="51.7588448524" lon="-2.2534232866">
				<ele>184.23</ele>
				<time>2017-09-27T11:18:15Z</time>
			</trkpt>
			<trkpt lat="51.7588231433" lon="-2.2534143180">
				<ele>183.75</ele>
				<time>2017-09-27T11:18:37Z</time>
			</trkpt>
			<trkpt lat="51.7588246521" lon="-2.2534023318">
				<ele>184.71</ele>
				<time>2017-09-27T11:19:03Z</time>
			</trkpt>
			<trkpt lat="51.7588057928" lon="-2.2533587459">
				<ele>183.75</ele>
				<time>2017-09-27T11:19:22Z</time>
			</trkpt>
			<trkpt lat="51.7588083912" lon="-2.2533475142">
				<ele>182.31</ele>
				<time>2017-09-27T11:19:44Z</time>
			</trkpt>
			<trkpt lat="51.7588053737" lon="-2.2533261403">
				<ele>180.87</ele>
				<time>2017-09-27T11:20:06Z</time>
			</trkpt>
			<trkpt lat="51.7587772943" lon="-2.2532966360">
				<ele>180.38</ele>
				<time>2017-09-27T11:20:24Z</time>
			</trkpt>
			<trkpt lat="51.7587517295" lon="-2.2532879189">
				<ele>178.94</ele>
				<time>2017-09-27T11:20:45Z</time>
			</trkpt>
			<trkpt lat="51.7587492149" lon="-2.2532826383">
				<ele>177.50</ele>
				<time>2017-09-27T11:21:04Z</time>
			</trkpt>
			<trkpt lat="51.7587738577" lon="-2.2532178462">
				<ele>176.06</ele>
				<time>2017-09-27T11:21:23Z</time>
			</trkpt>
			<trkpt lat="51.7587904539" lon="-2.2531692311">
				<ele>175.10</ele>
				<time>2017-09-27T11:21:42Z</time>
			</trkpt>
			<trkpt lat="51.7588104028" lon="-2.2530933749">
				<ele>173.17</ele>
				<time>2017-09-27T11:22:02Z</time>
			</trkpt>
			<trkpt lat="51.7588503845" lon="-2.2530072089">
				<ele>171.25</ele>
				<time>2017-09-27T11:22:22Z</time>
			</trkpt>
			<trkpt lat="51.7588628735" lon="-2.2529181093">
				<ele>168.85</ele>
				<time>2017-09-27T11:22:40Z</time>
			</trkpt>
			<trkpt lat="51.7589358799" lon="-2.2527451068">
				<ele>165.96</ele>
				<time>2017-09-27T11:23:02Z</time>
			</trkpt>
			<trkpt lat="51.7589662224" lon="-2.2526557557">
				<ele>165.48</ele>
				<time>2017-09-27T11:23:22Z</time>
			</trkpt>
			<trkpt lat="51.7589486204" lon="-2.2525317874">
				<ele>163.08</ele>
				<time>2017-09-27T11:23:38Z</time>
			</trkpt>
			<trkpt lat="51.7589665577" lon="-2.2524312045">
				<ele>161.64</ele>
				<time>2017-09-27T11:23:55Z</time>
			</trkpt>
			<trkpt lat="51.7589241453" lon="-2.2523739561">
				<ele>160.20</ele>
				<time>2017-09-27T11:24:10Z</time>
			</trkpt>
			<trkpt lat="51.7588735186" lon="-2.2521849442">
				<ele>157.79</ele>
				<time>2017-09-27T11:24:30Z</time>
			</trkpt>
			<trkpt lat="51.7588407453" lon="-2.2521104291">
				<ele>156.35</ele>
				<time>2017-09-27T11:24:48Z</time>
			</trkpt>
			<trkpt lat="51.7588310223" lon="-2.2520841938">
				<ele>154.91</ele>
				<time>2017-09-27T11:25:08Z</time>
			</trkpt>
			<trkpt lat="51.7588246521" lon="-2.2520612273">
				<ele>153.47</ele>
				<time>2017-09-27T11:25:29Z</time>
			</trkpt>
			<trkpt lat="51.7588063795" lon="-2.2520163842">
				<ele>152.99</ele>
				<time>2017-09-27T11:25:50Z</time>
			</trkpt>
			<trkpt lat="51.7587940581" lon="-2.2519752290">
				<ele>152.51</ele>
				<time>2017-09-27T11:26:17Z</time>
			</trkpt>
			<trkpt lat="51.7587327864" lon="-2.2518991213">
				<ele>151.54</ele>
				<time>2017-09-27T11:26:31Z</time>
			</trkpt>
			<trkpt lat="51.7587056290" lon="-2.2518847045">
				<ele>152.51</ele>
				<time>2017-09-27T11:26:45Z</time>
			</trkpt>
			<trkpt lat="51.7587214708" lon="-2.2518009692">
				<ele>151.06</ele>
				<time>2017-09-27T11:27:03Z</time>
			</trkpt>
			<trkpt lat="51.7587244883" lon="-2.2517968621">
				<ele>150.58</ele>
				<time>2017-09-27T11:27:10Z</time>
			</trkpt>
			<trkpt lat="51.7586841714" lon="-2.2516707983">
				<ele>149.62</ele>
				<time>2017-09-27T11:27:28Z</time>
			</trkpt>
			<trkpt lat="51.7586824112" lon="-2.2516488377">
				<ele>149.62</ele>
				<time>2017-09-27T11:27:55Z</time>
			</trkpt>
			<trkpt lat="51.7586772144" lon="-2.2516167350">
				<ele>149.62</ele>
				<time>2017-09-27T11:28:19Z</time>
			</trkpt>
			<trkpt lat="51.7586856801" lon="-2.2515393700">
				<ele>151.06</ele>
				<time>2017-09-27T11:28:34Z</time>
			</trkpt>
			<trkpt lat="51.7586886138" lon="-2.2512648627">
				<ele>149.62</ele>
				<time>2017-09-27T11:28:53Z</time>
			</trkpt>
			<trkpt lat="51.7587542441" lon="-2.2511372063">
				<ele>149.14</ele>
				<time>2017-09-27T11:29:13Z</time>
			</trkpt>
			<trkpt lat="51.7587967403" lon="-2.2510925308">
				<ele>150.10</ele>
				<time>2017-09-27T11:29:16Z</time>
			</trkpt>
			<trkpt lat="51.7588174436" lon="-2.2510595899">
				<ele>149.62</ele>
				<time>2017-09-27T11:29:33Z</time>
			</trkpt>
			<trkpt lat="51.7588756979" lon="-2.2509860806">
				<ele>148.66</ele>
				<time>2017-09-27T11:29:52Z</time>
			</trkpt>
			<trkpt lat="51.7588907853" lon="-2.2509527206">
				<ele>149.62</ele>
				<time>2017-09-27T11:29:54Z</time>
			</trkpt>
			<trkpt lat="51.7589050345" lon="-2.2507093940">
				<ele>148.18</ele>
				<time>2017-09-27T11:30:08Z</time>
			</trkpt>
			<trkpt lat="51.7589124106" lon="-2.2503278498">
				<ele>145.78</ele>
				<time>2017-09-27T11:30:27Z</time>
			</trkpt>
			<trkpt lat="51.7589424178" lon="-2.2501608822">
				<ele>145.30</ele>
				<time>2017-09-27T11:30:41Z</time>
			</trkpt>
			<trkpt lat="51.7589544877" lon="-2.2501291148">
				<ele>145.30</ele>
				<time>2017-09-27T11:30:58Z</time>
			</trkpt>
			<trkpt lat="51.7589597683" lon="-2.2500964254">
				<ele>144.82</ele>
				<time>2017-09-27T11:31:12Z</time>
			</trkpt>
			<trkpt lat="51.7589731794" lon="-2.2499001212">
				<ele>145.78</ele>
				<time>2017-09-27T11:31:27Z</time>
			</trkpt>
			<trkpt lat="51.7590013426" lon="-2.2496676911">
				<ele>145.78</ele>
				<time>2017-09-27T11:31:42Z</time>
			</trkpt>
			<trkpt lat="51.7589862552" lon="-2.2495805193">
				<ele>145.30</ele>
				<time>2017-09-27T11:31:47Z</time>
			</trkpt>
			<trkpt lat="51.7589469440" lon="-2.2494309861">
				<ele>145.78</ele>
				<time>2017-09-27T11:31:55Z</time>
			</trkpt>
			<trkpt lat="51.7589259893" lon="-2.2492615879">
				<ele>145.30</ele>
				<time>2017-09-27T11:32:05Z</time>
			</trkpt>
			<trkpt lat="51.7589234747" lon="-2.2490183450">
				<ele>147.22</ele>
				<time>2017-09-27T11:32:20Z</time>
			</trkpt>
			<trkpt lat="51.7588989157" lon="-2.2488741763">
				<ele>145.78</ele>
				<time>2017-09-27T11:32:29Z</time>
			</trkpt>
			<trkpt lat="51.7588652205" lon="-2.2487008385">
				<ele>146.26</ele>
				<time>2017-09-27T11:32:40Z</time>
			</trkpt>
			<trkpt lat="51.7588483728" lon="-2.2486161813">
				<ele>146.74</ele>
				<time>2017-09-27T11:32:55Z</time>
			</trkpt>
			<trkpt lat="51.7588549946" lon="-2.2485579271">
				<ele>146.74</ele>
				<time>2017-09-27T11:33:09Z</time>
			</trkpt>
			<trkpt lat="51.7588550784" lon="-2.2484943084">
				<ele>147.22</ele>
				<time>2017-09-27T11:33:16Z</time>
			</trkpt>
			<trkpt lat="51.7588475347" lon="-2.2484196257">
				<ele>146.26</ele>
				<time>2017-09-27T11:33:21Z</time>
			</trkpt>
			<trkpt lat="51.7588364705" lon="-2.2482143529">
				<ele>147.70</ele>
				<time>2017-09-27T11:33:34Z</time>
			</trkpt>
			<trkpt lat="51.7588601913" lon="-2.2481341381">
				<ele>147.22</ele>
				<time>2017-09-27T11:33:48Z</time>
			</trkpt>
			<trkpt lat="51.7588714231" lon="-2.2480995208">
				<ele>147.22</ele>
				<time>2017-09-27T11:33:55Z</time>
			</trkpt>
			<trkpt lat="51.7588831577" lon="-2.2480069846">
				<ele>148.18</ele>
				<time>2017-09-27T11:34:01Z</time>
			</trkpt>
			<trkpt lat="51.7589108180" lon="-2.2478594631">
				<ele>149.62</ele>
				<time>2017-09-27T11:34:15Z</time>
			</trkpt>
			<trkpt lat="51.7588847503" lon="-2.2477469780">
				<ele>150.58</ele>
				<time>2017-09-27T11:34:30Z</time>
			</trkpt>
			<trkpt lat="51.7587887775" lon="-2.2476548608">
				<ele>151.06</ele>
				<time>2017-09-27T11:34:45Z</time>
			</trkpt>
			<trkpt lat="51.7586783040" lon="-2.2475715447">
				<ele>151.06</ele>
				<time>2017-09-27T11:34:59Z</time>
			</trkpt>
			<trkpt lat="51.7586368974" lon="-2.2475420404">
				<ele>151.06</ele>
				<time>2017-09-27T11:35:15Z</time>
			</trkpt>
			<trkpt lat="51.7584904656" lon="-2.2474321537">
				<ele>151.54</ele>
				<time>2017-09-27T11:35:32Z</time>
			</trkpt>
			<trkpt lat="51.7583988514" lon="-2.2473712172">
				<ele>152.03</ele>
				<time>2017-09-27T11:35:41Z</time>
			</trkpt>
			<trkpt lat="51.7583917268" lon="-2.2473763302">
				<ele>151.54</ele>
				<time>2017-09-27T11:35:49Z</time>
			</trkpt>
			<trkpt lat="51.7583625577" lon="-2.2472513560">
				<ele>152.03</ele>
				<time>2017-09-27T11:35:57Z</time>
			</trkpt>
			<trkpt lat="51.7582964245" lon="-2.2471137252">
				<ele>152.51</ele>
				<time>2017-09-27T11:36:07Z</time>
			</trkpt>
			<trkpt lat="51.7582604662" lon="-2.2469283175">
				<ele>151.54</ele>
				<time>2017-09-27T11:36:20Z</time>
			</trkpt>
			<trkpt lat="51.7582595441" lon="-2.2468905151">
				<ele>152.03</ele>
				<time>2017-09-27T11:36:23Z</time>
			</trkpt>
			<trkpt lat="51.7582606338" lon="-2.2468065284">
				<ele>152.51</ele>
				<time>2017-09-27T11:36:38Z</time>
			</trkpt>
			<trkpt lat="51.7582737096" lon="-2.2465888504">
				<ele>153.95</ele>
				<time>2017-09-27T11:36:53Z</time>
			</trkpt>
			<trkpt lat="51.7582726199" lon="-2.2463547438">
				<ele>152.51</ele>
				<time>2017-09-27T11:37:08Z</time>
			</trkpt>
			<trkpt lat="51.7582274415" lon="-2.2460907139">
				<ele>152.99</ele>
				<time>2017-09-27T11:37:24Z</time>
			</trkpt>
			<trkpt lat="51.7582193110" lon="-2.2460142709">
				<ele>152.51</ele>
				<time>2017-09-27T11:37:41Z</time>
			</trkpt>
			<trkpt lat="51.7581984401" lon="-2.2457657475">
				<ele>152.99</ele>
				<time>2017-09-27T11:37:56Z</time>
			</trkpt>
			<trkpt lat="51.7581698578" lon="-2.2455909010">
				<ele>152.51</ele>
				<time>2017-09-27T11:38:10Z</time>
			</trkpt>
			<trkpt lat="51.7581416946" lon="-2.2453894001">
				<ele>151.54</ele>
				<time>2017-09-27T11:38:24Z</time>
			</trkpt>
			<trkpt lat="51.7580945883" lon="-2.2450972907">
				<ele>151.06</ele>
				<time>2017-09-27T11:38:40Z</time>
			</trkpt>
			<trkpt lat="51.7580947559" lon="-2.2450800240">
				<ele>150.58</ele>
				<time>2017-09-27T11:38:41Z</time>
			</trkpt>
			<trkpt lat="51.7580944207" lon="-2.2450238653">
				<ele>150.10</ele>
				<time>2017-09-27T11:38:45Z</time>
			</trkpt>
			<trkpt lat="51.7580958456" lon="-2.2450100351">
				<ele>150.58</ele>
				<time>2017-09-27T11:38:46Z</time>
			</trkpt>
			<trkpt lat="51.7580907326" lon="-2.2449185047">
				<ele>150.58</ele>
				<time>2017-09-27T11:38:52Z</time>
			</trkpt>
			<trkpt lat="51.7580847815" lon="-2.2448842227">
				<ele>151.54</ele>
				<time>2017-09-27T11:38:54Z</time>
			</trkpt>
			<trkpt lat="51.7581119388" lon="-2.2446280718">
				<ele>151.06</ele>
				<time>2017-09-27T11:39:10Z</time>
			</trkpt>
			<trkpt lat="51.7581406049" lon="-2.2443362139">
				<ele>151.06</ele>
				<time>2017-09-27T11:39:28Z</time>
			</trkpt>
			<trkpt lat="51.7581659183" lon="-2.2441007663">
				<ele>151.06</ele>
				<time>2017-09-27T11:39:43Z</time>
			</trkpt>
			<trkpt lat="51.7581841070" lon="-2.2439656500">
				<ele>151.06</ele>
				<time>2017-09-27T11:39:52Z</time>
			</trkpt>
			<trkpt lat="51.7582012899" lon="-2.2438834235">
				<ele>150.10</ele>
				<time>2017-09-27T11:39:58Z</time>
			</trkpt>
			<trkpt lat="51.7582053971" lon="-2.2438499797">
				<ele>151.06</ele>
				<time>2017-09-27T11:40:00Z</time>
			</trkpt>
			<trkpt lat="51.7582338955" lon="-2.2435706947">
				<ele>152.03</ele>
				<time>2017-09-27T11:40:16Z</time>
			</trkpt>
			<trkpt lat="51.7582597118" lon="-2.2433231771">
				<ele>150.58</ele>
				<time>2017-09-27T11:40:31Z</time>
			</trkpt>
			<trkpt lat="51.7582638189" lon="-2.2431509290">
				<ele>149.62</ele>
				<time>2017-09-27T11:40:42Z</time>
			</trkpt>
			<trkpt lat="51.7582759727" lon="-2.2430634219">
				<ele>149.62</ele>
				<time>2017-09-27T11:40:47Z</time>
			</trkpt>
			<trkpt lat="51.7583028786" lon="-2.2428046726">
				<ele>148.18</ele>
				<time>2017-09-27T11:41:02Z</time>
			</trkpt>
			<trkpt lat="51.7583367415" lon="-2.2426471766">
				<ele>147.70</ele>
				<time>2017-09-27T11:41:12Z</time>
			</trkpt>
			<trkpt lat="51.7583614681" lon="-2.2425372899">
				<ele>147.70</ele>
				<time>2017-09-27T11:41:19Z</time>
			</trkpt>
			<trkpt lat="51.7584431078" lon="-2.2422344517">
				<ele>147.70</ele>
				<time>2017-09-27T11:41:39Z</time>
			</trkpt>
			<trkpt lat="51.7585214786" lon="-2.2419726849">
				<ele>146.74</ele>
				<time>2017-09-27T11:41:57Z</time>
			</trkpt>
			<trkpt lat="51.7585383262" lon="-2.2418790590">
				<ele>146.74</ele>
				<time>2017-09-27T11:42:03Z</time>
			</trkpt>
			<trkpt lat="51.7585808225" lon="-2.2417006921">
				<ele>145.78</ele>
				<time>2017-09-27T11:42:14Z</time>
			</trkpt>
			<trkpt lat="51.7586122546" lon="-2.2414675076">
				<ele>144.34</ele>
				<time>2017-09-27T11:42:28Z</time>
			</trkpt>
			<trkpt lat="51.7586353049" lon="-2.2413128614">
				<ele>143.37</ele>
				<time>2017-09-27T11:42:39Z</time>
			</trkpt>
			<trkpt lat="51.7586519849" lon="-2.2412598878">
				<ele>143.85</ele>
				<time>2017-09-27T11:42:42Z</time>
			</trkpt>
			<trkpt lat="51.7586648092" lon="-2.2411284596">
				<ele>142.41</ele>
				<time>2017-09-27T11:42:50Z</time>
			</trkpt>
			<trkpt lat="51.7586803157" lon="-2.2409198340">
				<ele>140.49</ele>
				<time>2017-09-27T11:43:06Z</time>
			</trkpt>
			<trkpt lat="51.7587104905" lon="-2.2408504318">
				<ele>139.53</ele>
				<time>2017-09-27T11:43:20Z</time>
			</trkpt>
			<trkpt lat="51.7587880231" lon="-2.2407604940">
				<ele>138.57</ele>
				<time>2017-09-27T11:43:36Z</time>
			</trkpt>
			<trkpt lat="51.7589111533" lon="-2.2407822032">
				<ele>136.16</ele>
				<time>2017-09-27T11:43:51Z</time>
			</trkpt>
			<trkpt lat="51.7590118200" lon="-2.2408170719">
				<ele>134.72</ele>
				<time>2017-09-27T11:44:06Z</time>
			</trkpt>
			<trkpt lat="51.7591814697" lon="-2.2408396192">
				<ele>134.24</ele>
				<time>2017-09-27T11:44:22Z</time>
			</trkpt>
			<trkpt lat="51.7593274824" lon="-2.2408599034">
				<ele>132.80</ele>
				<time>2017-09-27T11:44:38Z</time>
			</trkpt>
			<trkpt lat="51.7594824638" lon="-2.2408572212">
				<ele>131.36</ele>
				<time>2017-09-27T11:44:52Z</time>
			</trkpt>
			<trkpt lat="51.7595798615" lon="-2.2408430558">
				<ele>130.88</ele>
				<time>2017-09-27T11:45:06Z</time>
			</trkpt>
			<trkpt lat="51.7597184982" lon="-2.2408282198">
				<ele>128.95</ele>
				<time>2017-09-27T11:45:24Z</time>
			</trkpt>
			<trkpt lat="51.7597644310" lon="-2.2408085223">
				<ele>129.43</ele>
				<time>2017-09-27T11:45:44Z</time>
			</trkpt>
			<trkpt lat="51.7597614136" lon="-2.2408057563">
				<ele>129.43</ele>
				<time>2017-09-27T11:46:06Z</time>
			</trkpt>
			<trkpt lat="51.7597644310" lon="-2.2408034932">
				<ele>122.71</ele>
				<time>2017-09-27T11:46:13Z</time>
			</trkpt>
			<trkpt lat="51.7597645149" lon="-2.2408024874">
				<ele>123.67</ele>
				<time>2017-09-27T11:46:14Z</time>
			</trkpt>
			<trkpt lat="51.7597644310" lon="-2.2408022359">
				<ele>130.88</ele>
				<time>2017-09-27T11:46:15Z</time>
			</trkpt>
			<trkpt lat="51.7597689573" lon="-2.2407959495">
				<ele>130.40</ele>
				<time>2017-09-27T11:46:16Z</time>
			</trkpt>
			<trkpt lat="51.7597652692" lon="-2.2407720610">
				<ele>128.47</ele>
				<time>2017-09-27T11:46:28Z</time>
			</trkpt>
			<trkpt lat="51.7597410455" lon="-2.2407120466">
				<ele>127.99</ele>
				<time>2017-09-27T11:46:45Z</time>
			</trkpt>
			<trkpt lat="51.7597488407" lon="-2.2406542953">
				<ele>127.99</ele>
				<time>2017-09-27T11:46:54Z</time>
			</trkpt>
			<trkpt lat="51.7597501818" lon="-2.2404614277">
				<ele>127.51</ele>
				<time>2017-09-27T11:47:06Z</time>
			</trkpt>
			<trkpt lat="51.7597384471" lon="-2.2403237969">
				<ele>127.03</ele>
				<time>2017-09-27T11:47:20Z</time>
			</trkpt>
			<trkpt lat="51.7597763333" lon="-2.2401165124">
				<ele>125.59</ele>
				<time>2017-09-27T11:47:35Z</time>
			</trkpt>
			<trkpt lat="51.7597784288" lon="-2.2400815599">
				<ele>125.59</ele>
				<time>2017-09-27T11:47:53Z</time>
			</trkpt>
			<trkpt lat="51.7597759981" lon="-2.2400079668">
				<ele>124.63</ele>
				<time>2017-09-27T11:48:10Z</time>
			</trkpt>
			<trkpt lat="51.7597714718" lon="-2.2399829887">
				<ele>124.63</ele>
				<time>2017-09-27T11:48:25Z</time>
			</trkpt>
			<trkpt lat="51.7597577255" lon="-2.2399322782">
				<ele>124.15</ele>
				<time>2017-09-27T11:48:36Z</time>
			</trkpt>
			<trkpt lat="51.7597582284" lon="-2.2399101499">
				<ele>123.19</ele>
				<time>2017-09-27T11:48:51Z</time>
			</trkpt>
			<trkpt lat="51.7598096933" lon="-2.2397387400">
				<ele>120.78</ele>
				<time>2017-09-27T11:49:04Z</time>
			</trkpt>
			<trkpt lat="51.7598442268" lon="-2.2396903764">
				<ele>119.34</ele>
				<time>2017-09-27T11:49:20Z</time>
			</trkpt>
			<trkpt lat="51.7598906625" lon="-2.2396514844">
				<ele>118.38</ele>
				<time>2017-09-27T11:49:34Z</time>
			</trkpt>
			<trkpt lat="51.7599562928" lon="-2.2396141011">
				<ele>117.42</ele>
				<time>2017-09-27T11:49:49Z</time>
			</trkpt>
			<trkpt lat="51.7600707058" lon="-2.2395563498">
				<ele>115.98</ele>
				<time>2017-09-27T11:50:04Z</time>
			</trkpt>
			<trkpt lat="51.7600806803" lon="-2.2395566851">
				<ele>114.05</ele>
				<time>2017-09-27T11:50:22Z</time>
			</trkpt>
			<trkpt lat="51.7600830272" lon="-2.2395589482">
				<ele>116.94</ele>
				<time>2017-09-27T11:50:23Z</time>
			</trkpt>
			<trkpt lat="51.7600830272" lon="-2.2395585291">
				<ele>116.46</ele>
				<time>2017-09-27T11:50:24Z</time>
			</trkpt>
			<trkpt lat="51.7601123638" lon="-2.2394794039">
				<ele>115.50</ele>
				<time>2017-09-27T11:50:36Z</time>
			</trkpt>
			<trkpt lat="51.7601603083" lon="-2.2392709460">
				<ele>113.57</ele>
				<time>2017-09-27T11:50:52Z</time>
			</trkpt>
			<trkpt lat="51.7601903994" lon="-2.2391118575">
				<ele>111.17</ele>
				<time>2017-09-27T11:51:10Z</time>
			</trkpt>
			<trkpt lat="51.7602199037" lon="-2.2388752364">
				<ele>108.29</ele>
				<time>2017-09-27T11:51:27Z</time>
			</trkpt>
			<trkpt lat="51.7602722067" lon="-2.2386584803">
				<ele>106.84</ele>
				<time>2017-09-27T11:51:44Z</time>
			</trkpt>
			<trkpt lat="51.7602730449" lon="-2.2386314906">
				<ele>107.32</ele>
				<time>2017-09-27T11:51:46Z</time>
			</trkpt>
			<trkpt lat="51.7602865398" lon="-2.2384870704">
				<ele>106.36</ele>
				<time>2017-09-27T11:51:57Z</time>
			</trkpt>
			<trkpt lat="51.7603012919" lon="-2.2384381201">
				<ele>106.84</ele>
				<time>2017-09-27T11:52:00Z</time>
			</trkpt>
			<trkpt lat="51.7603284493" lon="-2.2383168340">
				<ele>105.88</ele>
				<time>2017-09-27T11:52:08Z</time>
			</trkpt>
			<trkpt lat="51.7603266053" lon="-2.2382827196">
				<ele>105.88</ele>
				<time>2017-09-27T11:52:24Z</time>
			</trkpt>
			<trkpt lat="51.7603229173" lon="-2.2382968012">
				<ele>104.44</ele>
				<time>2017-09-27T11:52:39Z</time>
			</trkpt>
			<trkpt lat="51.7603256833" lon="-2.2382391337">
				<ele>105.40</ele>
				<time>2017-09-27T11:52:52Z</time>
			</trkpt>
			<trkpt lat="51.7603597138" lon="-2.2381059453">
				<ele>105.88</ele>
				<time>2017-09-27T11:53:06Z</time>
			</trkpt>
			<trkpt lat="51.7603603005" lon="-2.2381198592">
				<ele>105.40</ele>
				<time>2017-09-27T11:53:21Z</time>
			</trkpt>
			<trkpt lat="51.7603646591" lon="-2.2381504532">
				<ele>105.40</ele>
				<time>2017-09-27T11:53:35Z</time>
			</trkpt>
			<trkpt lat="51.7603525054" lon="-2.2381098848">
				<ele>105.40</ele>
				<time>2017-09-27T11:53:40Z</time>
			</trkpt>
			<trkpt lat="51.7604459636" lon="-2.2379368823">
				<ele>106.36</ele>
				<time>2017-09-27T11:53:51Z</time>
			</trkpt>
			<trkpt lat="51.7605439480" lon="-2.2378008440">
				<ele>107.81</ele>
				<time>2017-09-27T11:54:01Z</time>
			</trkpt>
			<trkpt lat="51.7605872825" lon="-2.2377127502">
				<ele>107.81</ele>
				<time>2017-09-27T11:54:08Z</time>
			</trkpt>
			<trkpt lat="51.7606658209" lon="-2.2375761252">
				<ele>109.73</ele>
				<time>2017-09-27T11:54:23Z</time>
			</trkpt>
			<trkpt lat="51.7607010249" lon="-2.2374421824">
				<ele>110.69</ele>
				<time>2017-09-27T11:54:43Z</time>
			</trkpt>
			<trkpt lat="51.7607285175" lon="-2.2373031266">
				<ele>111.65</ele>
				<time>2017-09-27T11:55:00Z</time>
			</trkpt>
			<trkpt lat="51.7607748695" lon="-2.2371734586">
				<ele>113.57</ele>
				<time>2017-09-27T11:55:14Z</time>
			</trkpt>
			<trkpt lat="51.7608022783" lon="-2.2370264400">
				<ele>115.01</ele>
				<time>2017-09-27T11:55:29Z</time>
			</trkpt>
			<trkpt lat="51.7608228140" lon="-2.2368832771">
				<ele>115.50</ele>
				<time>2017-09-27T11:55:45Z</time>
			</trkpt>
			<trkpt lat="51.7608373985" lon="-2.2368118633">
				<ele>117.42</ele>
				<time>2017-09-27T11:55:52Z</time>
			</trkpt>
			<trkpt lat="51.7608824093" lon="-2.2366859671">
				<ele>117.90</ele>
				<time>2017-09-27T11:56:08Z</time>
			</trkpt>
			<trkpt lat="51.7609098181" lon="-2.2365614120">
				<ele>119.34</ele>
				<time>2017-09-27T11:56:24Z</time>
			</trkpt>
			<trkpt lat="51.7609415855" lon="-2.2364388686">
				<ele>121.74</ele>
				<time>2017-09-27T11:56:40Z</time>
			</trkpt>
			<trkpt lat="51.7609507218" lon="-2.2363506909">
				<ele>122.71</ele>
				<time>2017-09-27T11:56:55Z</time>
			</trkpt>
			<trkpt lat="51.7609521467" lon="-2.2362992261">
				<ele>123.67</ele>
				<time>2017-09-27T11:57:06Z</time>
			</trkpt>
			<trkpt lat="51.7609780468" lon="-2.2362118866">
				<ele>125.59</ele>
				<time>2017-09-27T11:57:24Z</time>
			</trkpt>
			<trkpt lat="51.7610502150" lon="-2.2360297479">
				<ele>126.07</ele>
				<time>2017-09-27T11:57:44Z</time>
			</trkpt>
			<trkpt lat="51.7610681523" lon="-2.2358801309">
				<ele>129.92</ele>
				<time>2017-09-27T11:58:02Z</time>
			</trkpt>
			<trkpt lat="51.7610741034" lon="-2.2358459327">
				<ele>130.40</ele>
				<time>2017-09-27T11:58:07Z</time>
			</trkpt>
			<trkpt lat="51.7611243110" lon="-2.2356770374">
				<ele>131.84</ele>
				<time>2017-09-27T11:58:21Z</time>
			</trkpt>
			<trkpt lat="51.7611695733" lon="-2.2355524823">
				<ele>132.80</ele>
				<time>2017-09-27T11:58:39Z</time>
			</trkpt>
			<trkpt lat="51.7611746863" lon="-2.2355426755">
				<ele>132.80</ele>
				<time>2017-09-27T11:58:40Z</time>
			</trkpt>
			<trkpt lat="51.7612145003" lon="-2.2354699206">
				<ele>133.28</ele>
				<time>2017-09-27T11:58:49Z</time>
			</trkpt>
			<trkpt lat="51.7612248939" lon="-2.2354457807">
				<ele>133.76</ele>
				<time>2017-09-27T11:58:51Z</time>
			</trkpt>
			<trkpt lat="51.7612666357" lon="-2.2352845129">
				<ele>134.24</ele>
				<time>2017-09-27T11:59:07Z</time>
			</trkpt>
			<trkpt lat="51.7612677254" lon="-2.2352558468">
				<ele>134.72</ele>
				<time>2017-09-27T11:59:29Z</time>
			</trkpt>
			<trkpt lat="51.7612606008" lon="-2.2352671623">
				<ele>134.24</ele>
				<time>2017-09-27T11:59:42Z</time>
			</trkpt>
			<trkpt lat="51.7611651309" lon="-2.2352307849">
				<ele>134.72</ele>
				<time>2017-09-27T11:59:52Z</time>
			</trkpt>
			<trkpt lat="51.7611808050" lon="-2.2352268454">
				<ele>134.72</ele>
				<time>2017-09-27T12:00:06Z</time>
			</trkpt>
			<trkpt lat="51.7612304259" lon="-2.2352032084">
				<ele>133.76</ele>
				<time>2017-09-27T12:00:21Z</time>
			</trkpt>
			<trkpt lat="51.7612355389" lon="-2.2352007776">
				<ele>134.24</ele>
				<time>2017-09-27T12:00:42Z</time>
			</trkpt>
			<trkpt lat="51.7612452619" lon="-2.2351931501">
				<ele>135.68</ele>
				<time>2017-09-27T12:00:58Z</time>
			</trkpt>
			<trkpt lat="51.7612692341" lon="-2.2352063935">
				<ele>135.68</ele>
				<time>2017-09-27T12:01:00Z</time>
			</trkpt>
			<trkpt lat="51.7612860817" lon="-2.2352301143">
				<ele>134.72</ele>
				<time>2017-09-27T12:01:07Z</time>
			</trkpt>
			<trkpt lat="51.7612269893" lon="-2.2352201398">
				<ele>134.24</ele>
				<time>2017-09-27T12:01:24Z</time>
			</trkpt>
			<trkpt lat="51.7612263188" lon="-2.2352283541">
				<ele>134.72</ele>
				<time>2017-09-27T12:01:55Z</time>
			</trkpt>
			<trkpt lat="51.7612180207" lon="-2.2352229059">
				<ele>134.24</ele>
				<time>2017-09-27T12:02:27Z</time>
			</trkpt>
			<trkpt lat="51.7612139136" lon="-2.2352164518">
				<ele>133.76</ele>
				<time>2017-09-27T12:02:53Z</time>
			</trkpt>
			<trkpt lat="51.7612141650" lon="-2.2352103330">
				<ele>132.80</ele>
				<time>2017-09-27T12:03:25Z</time>
			</trkpt>
			<trkpt lat="51.7612519674" lon="-2.2351724468">
				<ele>136.16</ele>
				<time>2017-09-27T12:03:38Z</time>
			</trkpt>
			<trkpt lat="51.7613092996" lon="-2.2352207266">
				<ele>134.72</ele>
				<time>2017-09-27T12:03:54Z</time>
			</trkpt>
			<trkpt lat="51.7613495328" lon="-2.2351680044">
				<ele>135.68</ele>
				<time>2017-09-27T12:04:14Z</time>
			</trkpt>
			<trkpt lat="51.7614189349" lon="-2.2349647433">
				<ele>138.09</ele>
				<time>2017-09-27T12:04:27Z</time>
			</trkpt>
			<trkpt lat="51.7614201084" lon="-2.2349272761">
				<ele>136.64</ele>
				<time>2017-09-27T12:04:30Z</time>
			</trkpt>
			<trkpt lat="51.7614913546" lon="-2.2347811796">
				<ele>139.53</ele>
				<time>2017-09-27T12:04:46Z</time>
			</trkpt>
			<trkpt lat="51.7615597509" lon="-2.2346558701">
				<ele>141.45</ele>
				<time>2017-09-27T12:05:01Z</time>
			</trkpt>
			<trkpt lat="51.7616077792" lon="-2.2344960272">
				<ele>141.93</ele>
				<time>2017-09-27T12:05:16Z</time>
			</trkpt>
			<trkpt lat="51.7616384570" lon="-2.2344082687">
				<ele>143.85</ele>
				<time>2017-09-27T12:05:29Z</time>
			</trkpt>
			<trkpt lat="51.7616550531" lon="-2.2343189176">
				<ele>145.30</ele>
				<time>2017-09-27T12:05:45Z</time>
			</trkpt>
			<trkpt lat="51.7616641894" lon="-2.2342005651">
				<ele>146.26</ele>
				<time>2017-09-27T12:06:03Z</time>
			</trkpt>
			<trkpt lat="51.7616536282" lon="-2.2341701388">
				<ele>146.26</ele>
				<time>2017-09-27T12:06:18Z</time>
			</trkpt>
			<trkpt lat="51.7616172507" lon="-2.2341150697">
				<ele>146.26</ele>
				<time>2017-09-27T12:06:26Z</time>
			</trkpt>
			<trkpt lat="51.7615165003" lon="-2.2339698114">
				<ele>145.78</ele>
				<time>2017-09-27T12:06:40Z</time>
			</trkpt>
			<trkpt lat="51.7614403088" lon="-2.2338092979">
				<ele>145.78</ele>
				<time>2017-09-27T12:06:54Z</time>
			</trkpt>
			<trkpt lat="51.7614388000" lon="-2.2337906901">
				<ele>145.78</ele>
				<time>2017-09-27T12:06:55Z</time>
			</trkpt>
			<trkpt lat="51.7613979802" lon="-2.2336997464">
				<ele>145.30</ele>
				<time>2017-09-27T12:07:01Z</time>
			</trkpt>
			<trkpt lat="51.7612995766" lon="-2.2335236426">
				<ele>145.30</ele>
				<time>2017-09-27T12:07:16Z</time>
			</trkpt>
			<trkpt lat="51.7612629477" lon="-2.2334089782">
				<ele>145.78</ele>
				<time>2017-09-27T12:07:23Z</time>
			</trkpt>
			<trkpt lat="51.7613443360" lon="-2.2332389094">
				<ele>147.70</ele>
				<time>2017-09-27T12:07:36Z</time>
			</trkpt>
			<trkpt lat="51.7613847367" lon="-2.2331283521">
				<ele>146.74</ele>
				<time>2017-09-27T12:07:45Z</time>
			</trkpt>
			<trkpt lat="51.7613477726" lon="-2.2329778969">
				<ele>147.22</ele>
				<time>2017-09-27T12:08:01Z</time>
			</trkpt>
			<trkpt lat="51.7613265663" lon="-2.2329373285">
				<ele>147.22</ele>
				<time>2017-09-27T12:08:04Z</time>
			</trkpt>
			<trkpt lat="51.7612341978" lon="-2.2328727879">
				<ele>146.26</ele>
				<time>2017-09-27T12:08:17Z</time>
			</trkpt>
			<trkpt lat="51.7612269055" lon="-2.2328677587">
				<ele>146.74</ele>
				<time>2017-09-27T12:08:18Z</time>
			</trkpt>
			<trkpt lat="51.7611659691" lon="-2.2328127734">
				<ele>145.30</ele>
				<time>2017-09-27T12:08:25Z</time>
			</trkpt>
			<trkpt lat="51.7610648833" lon="-2.2327277809">
				<ele>144.82</ele>
				<time>2017-09-27T12:08:36Z</time>
			</trkpt>
			<trkpt lat="51.7610074673" lon="-2.2326309700">
				<ele>143.37</ele>
				<time>2017-09-27T12:08:48Z</time>
			</trkpt>
			<trkpt lat="51.7609770410" lon="-2.2326044831">
				<ele>143.37</ele>
				<time>2017-09-27T12:08:56Z</time>
			</trkpt>
			<trkpt lat="51.7610161006" lon="-2.2326742206">
				<ele>143.85</ele>
				<time>2017-09-27T12:09:12Z</time>
			</trkpt>
			<trkpt lat="51.7610186990" lon="-2.2326997854">
				<ele>142.89</ele>
				<time>2017-09-27T12:09:31Z</time>
			</trkpt>
			<trkpt lat="51.7610203754" lon="-2.2326742206">
				<ele>143.85</ele>
				<time>2017-09-27T12:09:33Z</time>
			</trkpt>
			<trkpt lat="51.7609848361" lon="-2.2326932475">
				<ele>143.37</ele>
				<time>2017-09-27T12:09:47Z</time>
			</trkpt>
			<trkpt lat="51.7609515600" lon="-2.2326075844">
				<ele>143.37</ele>
				<time>2017-09-27T12:09:58Z</time>
			</trkpt>
			<trkpt lat="51.7608819902" lon="-2.2325194906">
				<ele>143.37</ele>
				<time>2017-09-27T12:10:03Z</time>
			</trkpt>
			<trkpt lat="51.7608292680" lon="-2.2324347496">
				<ele>143.85</ele>
				<time>2017-09-27T12:10:09Z</time>
			</trkpt>
			<trkpt lat="51.7607523222" lon="-2.2325860430">
				<ele>141.93</ele>
				<time>2017-09-27T12:10:19Z</time>
			</trkpt>
			<trkpt lat="51.7607297748" lon="-2.2326888051">
				<ele>141.93</ele>
				<time>2017-09-27T12:10:26Z</time>
			</trkpt>
			<trkpt lat="51.7607443593" lon="-2.2327489872">
				<ele>141.45</ele>
				<time>2017-09-27T12:10:41Z</time>
			</trkpt>
			<trkpt lat="51.7607993446" lon="-2.2327934112">
				<ele>142.41</ele>
				<time>2017-09-27T12:10:52Z</time>
			</trkpt>
			<trkpt lat="51.7608037032" lon="-2.2327946685">
				<ele>141.45</ele>
				<time>2017-09-27T12:11:11Z</time>
			</trkpt>
			<trkpt lat="51.7607977521" lon="-2.2327868734">
				<ele>141.45</ele>
				<time>2017-09-27T12:11:26Z</time>
			</trkpt>
			<trkpt lat="51.7607800663" lon="-2.2327794135">
				<ele>139.53</ele>
				<time>2017-09-27T12:11:29Z</time>
			</trkpt>
			<trkpt lat="51.7607402522" lon="-2.2327788267">
				<ele>142.41</ele>
				<time>2017-09-27T12:11:35Z</time>
			</trkpt>
			<trkpt lat="51.7607395817" lon="-2.2327790782">
				<ele>142.41</ele>
				<time>2017-09-27T12:11:36Z</time>
			</trkpt>
		</trkseg>
	</trk>
</gpx>
